<?xml version='1.0' encoding='UTF-8'?><gpx version="1.1" creator="JPX - https://github.com/jenetics/jpx" xmlns="http://www.topografix.com/GPX/1/1"><trk><trkseg><trkpt lat="45.7131117" lon="8.524185"><ele>351.0</ele><time>2026-04-05T13:32:42.28Z</time></trkpt><trkpt lat="45.7130017" lon="8.524205"><ele>351.0</ele><time>2026-04-05T13:32:43.273Z</time></trkpt><trkpt lat="45.713165" lon="8.5241617"><ele>351.0</ele><time>2026-04-05T13:32:47.277Z</time></trkpt><trkpt lat="45.7132733" lon="8.524145"><ele>351.0</ele><time>2026-04-05T13:32:52.278Z</time></trkpt><trkpt lat="45.7133467" lon="8.5241383"><ele>351.00000000000006</ele><time>2026-04-05T13:32:54.277Z</time></trkpt><trkpt lat="45.7134133" lon="8.5241667"><ele>351.0</ele><time>2026-04-05T13:32:56.278Z</time></trkpt><trkpt lat="45.713465" lon="8.5242317"><ele>351.0</ele><time>2026-04-05T13:32:59.282Z</time></trkpt><trkpt lat="45.7135033" lon="8.5243183"><ele>351.0</ele><time>2026-04-05T13:33:04.277Z</time></trkpt><trkpt lat="45.71352" lon="8.5244067"><ele>351.0</ele><time>2026-04-05T13:33:07.278Z</time></trkpt><trkpt lat="45.7135267" lon="8.5245"><ele>351.00000000000006</ele><time>2026-04-05T13:33:14.278Z</time></trkpt><trkpt lat="45.7135567" lon="8.5246067"><ele>351.0</ele><time>2026-04-05T13:33:21.275Z</time></trkpt><trkpt lat="45.7135633" lon="8.524715"><ele>349.8333333333333</ele><time>2026-04-05T13:33:24.275Z</time></trkpt><trkpt lat="45.7135733" lon="8.524805"><ele>348.6666666666667</ele><time>2026-04-05T13:33:31.275Z</time></trkpt><trkpt lat="45.7136067" lon="8.52489"><ele>347.5</ele><time>2026-04-05T13:33:48.28Z</time></trkpt><trkpt lat="45.7136483" lon="8.5249717"><ele>346.33333333333337</ele><time>2026-04-05T13:33:58.279Z</time></trkpt><trkpt lat="45.71367" lon="8.525075"><ele>345.1666666666667</ele><time>2026-04-05T13:34:02.28Z</time></trkpt><trkpt lat="45.7136783" lon="8.5251867"><ele>344.0</ele><time>2026-04-05T13:34:05.28Z</time></trkpt><trkpt lat="45.7136683" lon="8.5253217"><ele>343.7142857142857</ele><time>2026-04-05T13:34:08.28Z</time></trkpt><trkpt lat="45.7136617" lon="8.525445"><ele>343.42857142857144</ele><time>2026-04-05T13:34:11.28Z</time></trkpt><trkpt lat="45.7136383" lon="8.5255383"><ele>343.1428571428571</ele><time>2026-04-05T13:34:14.281Z</time></trkpt><trkpt lat="45.7136067" lon="8.525625"><ele>342.8571428571429</ele><time>2026-04-05T13:34:17.275Z</time></trkpt><trkpt lat="45.7135817" lon="8.5257133"><ele>342.57142857142856</ele><time>2026-04-05T13:34:20.284Z</time></trkpt><trkpt lat="45.7135433" lon="8.5257933"><ele>342.2857142857143</ele><time>2026-04-05T13:34:24.279Z</time></trkpt><trkpt lat="45.7134867" lon="8.52587"><ele>342.0</ele><time>2026-04-05T13:34:30.28Z</time></trkpt><trkpt lat="45.7134183" lon="8.5259267"><ele>342.57142857142856</ele><time>2026-04-05T13:34:36.28Z</time></trkpt><trkpt lat="45.7133533" lon="8.5259517"><ele>343.1428571428571</ele><time>2026-04-05T13:34:40.279Z</time></trkpt><trkpt lat="45.7132783" lon="8.525945"><ele>343.71428571428567</ele><time>2026-04-05T13:34:44.281Z</time></trkpt><trkpt lat="45.7132083" lon="8.5259317"><ele>344.2857142857143</ele><time>2026-04-05T13:34:47.279Z</time></trkpt><trkpt lat="45.7131367" lon="8.525925"><ele>344.8571428571429</ele><time>2026-04-05T13:34:50.282Z</time></trkpt><trkpt lat="45.7130617" lon="8.525925"><ele>345.4285714285714</ele><time>2026-04-05T13:34:53.277Z</time></trkpt><trkpt lat="45.71299" lon="8.5259267"><ele>346.0</ele><time>2026-04-05T13:34:56.28Z</time></trkpt><trkpt lat="45.7129167" lon="8.5259483"><ele>346.0</ele><time>2026-04-05T13:35:00.279Z</time></trkpt><trkpt lat="45.7128467" lon="8.5259767"><ele>346.0</ele><time>2026-04-05T13:35:05.28Z</time></trkpt><trkpt lat="45.7127817" lon="8.525985"><ele>346.0</ele><time>2026-04-05T13:35:09.282Z</time></trkpt><trkpt lat="45.7127" lon="8.52601"><ele>346.0</ele><time>2026-04-05T13:35:13.274Z</time></trkpt><trkpt lat="45.7126233" lon="8.52603"><ele>346.0</ele><time>2026-04-05T13:35:17.277Z</time></trkpt><trkpt lat="45.7125417" lon="8.5260283"><ele>346.0</ele><time>2026-04-05T13:35:21.281Z</time></trkpt><trkpt lat="45.7124767" lon="8.52603"><ele>346.0</ele><time>2026-04-05T13:35:25.276Z</time></trkpt><trkpt lat="45.7124817" lon="8.5261217"><ele>345.57142857142856</ele><time>2026-04-05T13:35:38.28Z</time></trkpt><trkpt lat="45.7125417" lon="8.52616"><ele>345.14285714285717</ele><time>2026-04-05T13:35:46.279Z</time></trkpt><trkpt lat="45.7126117" lon="8.5261983"><ele>344.7142857142857</ele><time>2026-04-05T13:35:50.28Z</time></trkpt><trkpt lat="45.7126783" lon="8.5262283"><ele>344.2857142857143</ele><time>2026-04-05T13:35:52.281Z</time></trkpt><trkpt lat="45.7127417" lon="8.5262817"><ele>343.8571428571429</ele><time>2026-04-05T13:35:55.28Z</time></trkpt><trkpt lat="45.7127917" lon="8.526345"><ele>343.42857142857144</ele><time>2026-04-05T13:35:58.28Z</time></trkpt><trkpt lat="45.7128433" lon="8.52643"><ele>343.0</ele><time>2026-04-05T13:36:02.28Z</time></trkpt><trkpt lat="45.7128983" lon="8.5265"><ele>342.0</ele><time>2026-04-05T13:36:06.28Z</time></trkpt><trkpt lat="45.7129183" lon="8.5266067"><ele>341.0</ele><time>2026-04-05T13:36:12.281Z</time></trkpt><trkpt lat="45.7129617" lon="8.5267"><ele>340.0</ele><time>2026-04-05T13:36:17.28Z</time></trkpt><trkpt lat="45.7130033" lon="8.5267883"><ele>339.0</ele><time>2026-04-05T13:36:22.279Z</time></trkpt><trkpt lat="45.713045" lon="8.52689"><ele>338.0</ele><time>2026-04-05T13:36:26.28Z</time></trkpt><trkpt lat="45.7130833" lon="8.52699"><ele>337.0</ele><time>2026-04-05T13:36:30.28Z</time></trkpt><trkpt lat="45.713125" lon="8.52706"><ele>337.0</ele><time>2026-04-05T13:36:33.279Z</time></trkpt><trkpt lat="45.713175" lon="8.5271333"><ele>337.0</ele><time>2026-04-05T13:36:36.278Z</time></trkpt><trkpt lat="45.71323" lon="8.5272183"><ele>337.0</ele><time>2026-04-05T13:36:39.277Z</time></trkpt><trkpt lat="45.7132833" lon="8.5273133"><ele>337.0</ele><time>2026-04-05T13:36:42.281Z</time></trkpt><trkpt lat="45.7133317" lon="8.5274133"><ele>337.0</ele><time>2026-04-05T13:36:45.283Z</time></trkpt><trkpt lat="45.71338" lon="8.5275083"><ele>337.0</ele><time>2026-04-05T13:36:48.28Z</time></trkpt><trkpt lat="45.7134367" lon="8.5275733"><ele>337.0</ele><time>2026-04-05T13:36:51.282Z</time></trkpt><trkpt lat="45.713495" lon="8.527625"><ele>337.0</ele><time>2026-04-05T13:36:54.281Z</time></trkpt><trkpt lat="45.7135583" lon="8.5276633"><ele>337.0</ele><time>2026-04-05T13:36:57.274Z</time></trkpt><trkpt lat="45.7136317" lon="8.5277017"><ele>337.0</ele><time>2026-04-05T13:37:01.279Z</time></trkpt><trkpt lat="45.71367" lon="8.5277867"><ele>337.0</ele><time>2026-04-05T13:37:04.279Z</time></trkpt><trkpt lat="45.71373" lon="8.5278867"><ele>337.0</ele><time>2026-04-05T13:37:07.281Z</time></trkpt><trkpt lat="45.7137683" lon="8.5280083"><ele>336.0</ele><time>2026-04-05T13:37:09.281Z</time></trkpt><trkpt lat="45.7138033" lon="8.5281717"><ele>335.0</ele><time>2026-04-05T13:37:11.278Z</time></trkpt><trkpt lat="45.713845" lon="8.5283333"><ele>334.0</ele><time>2026-04-05T13:37:13.28Z</time></trkpt><trkpt lat="45.7138983" lon="8.5284867"><ele>333.0</ele><time>2026-04-05T13:37:15.278Z</time></trkpt><trkpt lat="45.7139567" lon="8.5286233"><ele>332.2</ele><time>2026-04-05T13:37:17.28Z</time></trkpt><trkpt lat="45.71403" lon="8.5287417"><ele>331.4</ele><time>2026-04-05T13:37:19.279Z</time></trkpt><trkpt lat="45.7141017" lon="8.5288483"><ele>330.59999999999997</ele><time>2026-04-05T13:37:21.279Z</time></trkpt><trkpt lat="45.7141733" lon="8.5289617"><ele>329.79999999999995</ele><time>2026-04-05T13:37:23.279Z</time></trkpt><trkpt lat="45.71424" lon="8.5290567"><ele>329.0</ele><time>2026-04-05T13:37:25.279Z</time></trkpt><trkpt lat="45.7142983" lon="8.5291367"><ele>329.0</ele><time>2026-04-05T13:37:27.278Z</time></trkpt><trkpt lat="45.7143517" lon="8.5292117"><ele>329.0</ele><time>2026-04-05T13:37:29.279Z</time></trkpt><trkpt lat="45.7143967" lon="8.52928"><ele>329.0</ele><time>2026-04-05T13:37:31.279Z</time></trkpt><trkpt lat="45.7144533" lon="8.5293717"><ele>329.0</ele><time>2026-04-05T13:37:33.278Z</time></trkpt><trkpt lat="45.7145033" lon="8.5294367"><ele>329.0</ele><time>2026-04-05T13:37:35.28Z</time></trkpt><trkpt lat="45.71456" lon="8.5295183"><ele>329.0</ele><time>2026-04-05T13:37:37.28Z</time></trkpt><trkpt lat="45.7146217" lon="8.5295983"><ele>329.0</ele><time>2026-04-05T13:37:39.28Z</time></trkpt><trkpt lat="45.71468" lon="8.52967"><ele>329.0</ele><time>2026-04-05T13:37:41.278Z</time></trkpt><trkpt lat="45.71474" lon="8.5297467"><ele>329.0</ele><time>2026-04-05T13:37:43.278Z</time></trkpt><trkpt lat="45.7147883" lon="8.5298233"><ele>329.0</ele><time>2026-04-05T13:37:45.278Z</time></trkpt><trkpt lat="45.7148367" lon="8.5299117"><ele>329.0</ele><time>2026-04-05T13:37:47.28Z</time></trkpt><trkpt lat="45.7148967" lon="8.5299933"><ele>329.0</ele><time>2026-04-05T13:37:49.278Z</time></trkpt><trkpt lat="45.71494" lon="8.53007"><ele>329.0</ele><time>2026-04-05T13:37:51.276Z</time></trkpt><trkpt lat="45.7149833" lon="8.5301533"><ele>329.0</ele><time>2026-04-05T13:37:53.279Z</time></trkpt><trkpt lat="45.7150317" lon="8.5302317"><ele>329.0</ele><time>2026-04-05T13:37:55.278Z</time></trkpt><trkpt lat="45.715085" lon="8.5303083"><ele>329.0</ele><time>2026-04-05T13:37:58.278Z</time></trkpt><trkpt lat="45.7151267" lon="8.5303767"><ele>329.0</ele><time>2026-04-05T13:38:06.28Z</time></trkpt><trkpt lat="45.7151417" lon="8.5304783"><ele>329.0</ele><time>2026-04-05T13:38:12.278Z</time></trkpt><trkpt lat="45.71519" lon="8.53058"><ele>329.0</ele><time>2026-04-05T13:38:15.28Z</time></trkpt><trkpt lat="45.71524" lon="8.5306617"><ele>328.1666666666667</ele><time>2026-04-05T13:38:17.281Z</time></trkpt><trkpt lat="45.7152883" lon="8.5307367"><ele>327.33333333333337</ele><time>2026-04-05T13:38:19.279Z</time></trkpt><trkpt lat="45.7153433" lon="8.5308233"><ele>326.5</ele><time>2026-04-05T13:38:21.281Z</time></trkpt><trkpt lat="45.7153967" lon="8.5309167"><ele>325.6666666666667</ele><time>2026-04-05T13:38:23.279Z</time></trkpt><trkpt lat="45.715465" lon="8.5310133"><ele>324.8333333333333</ele><time>2026-04-05T13:38:25.276Z</time></trkpt><trkpt lat="45.71553" lon="8.53111"><ele>324.0</ele><time>2026-04-05T13:38:27.28Z</time></trkpt><trkpt lat="45.7156017" lon="8.5312017"><ele>323.5</ele><time>2026-04-05T13:38:29.28Z</time></trkpt><trkpt lat="45.7156567" lon="8.531285"><ele>323.0</ele><time>2026-04-05T13:38:31.28Z</time></trkpt><trkpt lat="45.715695" lon="8.531365"><ele>322.5</ele><time>2026-04-05T13:38:33.279Z</time></trkpt><trkpt lat="45.715725" lon="8.5314567"><ele>322.0</ele><time>2026-04-05T13:38:36.281Z</time></trkpt><trkpt lat="45.715735" lon="8.5315633"><ele>321.5</ele><time>2026-04-05T13:38:41.276Z</time></trkpt><trkpt lat="45.715695" lon="8.5316683"><ele>321.0</ele><time>2026-04-05T13:38:44.278Z</time></trkpt><trkpt lat="45.715635" lon="8.5317467"><ele>321.0</ele><time>2026-04-05T13:38:47.281Z</time></trkpt><trkpt lat="45.71559" lon="8.5318317"><ele>321.0</ele><time>2026-04-05T13:38:50.281Z</time></trkpt><trkpt lat="45.715535" lon="8.53191"><ele>321.0</ele><time>2026-04-05T13:38:53.281Z</time></trkpt><trkpt lat="45.715495" lon="8.53199"><ele>321.0</ele><time>2026-04-05T13:38:55.275Z</time></trkpt><trkpt lat="45.7154583" lon="8.5320967"><ele>321.0</ele><time>2026-04-05T13:38:57.277Z</time></trkpt><trkpt lat="45.7154017" lon="8.5321983"><ele>321.0</ele><time>2026-04-05T13:38:59.28Z</time></trkpt><trkpt lat="45.7153433" lon="8.5322917"><ele>321.0</ele><time>2026-04-05T13:39:01.279Z</time></trkpt><trkpt lat="45.7152933" lon="8.5323733"><ele>321.0</ele><time>2026-04-05T13:39:03.281Z</time></trkpt><trkpt lat="45.7152383" lon="8.5324567"><ele>321.0</ele><time>2026-04-05T13:39:06.281Z</time></trkpt><trkpt lat="45.715175" lon="8.5325233"><ele>321.0</ele><time>2026-04-05T13:39:09.281Z</time></trkpt><trkpt lat="45.71512" lon="8.5325967"><ele>321.0</ele><time>2026-04-05T13:39:12.283Z</time></trkpt><trkpt lat="45.7150617" lon="8.532675"><ele>321.0</ele><time>2026-04-05T13:39:14.28Z</time></trkpt><trkpt lat="45.715005" lon="8.5327483"><ele>321.1666666666667</ele><time>2026-04-05T13:39:16.278Z</time></trkpt><trkpt lat="45.714945" lon="8.5328233"><ele>321.3333333333333</ele><time>2026-04-05T13:39:18.274Z</time></trkpt><trkpt lat="45.7149" lon="8.5328933"><ele>321.5</ele><time>2026-04-05T13:39:20.277Z</time></trkpt><trkpt lat="45.71485" lon="8.5329833"><ele>321.66666666666663</ele><time>2026-04-05T13:39:22.274Z</time></trkpt><trkpt lat="45.7147767" lon="8.5330283"><ele>321.8333333333333</ele><time>2026-04-05T13:39:25.28Z</time></trkpt><trkpt lat="45.7146933" lon="8.5330267"><ele>322.0</ele><time>2026-04-05T13:39:28.283Z</time></trkpt><trkpt lat="45.7146217" lon="8.5330167"><ele>322.0</ele><time>2026-04-05T13:39:30.281Z</time></trkpt><trkpt lat="45.71455" lon="8.53301"><ele>322.0</ele><time>2026-04-05T13:39:32.281Z</time></trkpt><trkpt lat="45.7144767" lon="8.533015"><ele>322.0</ele><time>2026-04-05T13:39:34.279Z</time></trkpt><trkpt lat="45.7144133" lon="8.533035"><ele>322.0</ele><time>2026-04-05T13:39:37.278Z</time></trkpt><trkpt lat="45.71435" lon="8.5330667"><ele>322.0</ele><time>2026-04-05T13:39:41.284Z</time></trkpt><trkpt lat="45.71428" lon="8.5331133"><ele>322.0</ele><time>2026-04-05T13:39:45.28Z</time></trkpt><trkpt lat="45.7142033" lon="8.533185"><ele>322.0</ele><time>2026-04-05T13:39:48.283Z</time></trkpt><trkpt lat="45.7141433" lon="8.533245"><ele>322.0</ele><time>2026-04-05T13:39:50.282Z</time></trkpt><trkpt lat="45.7140867" lon="8.5332967"><ele>322.0</ele><time>2026-04-05T13:39:52.281Z</time></trkpt><trkpt lat="45.71404" lon="8.5333583"><ele>322.0</ele><time>2026-04-05T13:39:54.282Z</time></trkpt><trkpt lat="45.714025" lon="8.5334533"><ele>322.0</ele><time>2026-04-05T13:39:58.279Z</time></trkpt><trkpt lat="45.7140717" lon="8.533515"><ele>322.0</ele><time>2026-04-05T13:40:03.285Z</time></trkpt><trkpt lat="45.7141283" lon="8.5335767"><ele>322.0</ele><time>2026-04-05T13:40:08.281Z</time></trkpt><trkpt lat="45.71418" lon="8.5336367"><ele>322.0</ele><time>2026-04-05T13:40:12.282Z</time></trkpt><trkpt lat="45.7142417" lon="8.5337"><ele>322.0</ele><time>2026-04-05T13:40:16.281Z</time></trkpt><trkpt lat="45.7142883" lon="8.5337767"><ele>322.0</ele><time>2026-04-05T13:40:19.281Z</time></trkpt><trkpt lat="45.7143367" lon="8.5338367"><ele>322.0</ele><time>2026-04-05T13:40:21.285Z</time></trkpt><trkpt lat="45.7143867" lon="8.5339217"><ele>322.0</ele><time>2026-04-05T13:40:23.282Z</time></trkpt><trkpt lat="45.7144333" lon="8.5340567"><ele>322.0</ele><time>2026-04-05T13:40:25.281Z</time></trkpt><trkpt lat="45.7144683" lon="8.5342183"><ele>322.0</ele><time>2026-04-05T13:40:27.28Z</time></trkpt><trkpt lat="45.71447" lon="8.534375"><ele>320.8</ele><time>2026-04-05T13:40:29.281Z</time></trkpt><trkpt lat="45.71446" lon="8.53453"><ele>319.6</ele><time>2026-04-05T13:40:31.274Z</time></trkpt><trkpt lat="45.7144283" lon="8.5346733"><ele>318.40000000000003</ele><time>2026-04-05T13:40:33.283Z</time></trkpt><trkpt lat="45.7143783" lon="8.5347867"><ele>317.20000000000005</ele><time>2026-04-05T13:40:35.283Z</time></trkpt><trkpt lat="45.7143217" lon="8.5349"><ele>316.0</ele><time>2026-04-05T13:40:37.28Z</time></trkpt><trkpt lat="45.714265" lon="8.5350217"><ele>316.0</ele><time>2026-04-05T13:40:39.28Z</time></trkpt><trkpt lat="45.714205" lon="8.5351383"><ele>316.0</ele><time>2026-04-05T13:40:41.283Z</time></trkpt><trkpt lat="45.7141467" lon="8.5352467"><ele>316.0</ele><time>2026-04-05T13:40:43.28Z</time></trkpt><trkpt lat="45.7141233" lon="8.5353333"><ele>316.0</ele><time>2026-04-05T13:40:45.281Z</time></trkpt><trkpt lat="45.7142117" lon="8.535365"><ele>316.0</ele><time>2026-04-05T13:40:48.281Z</time></trkpt><trkpt lat="45.714295" lon="8.5353883"><ele>316.0</ele><time>2026-04-05T13:40:50.283Z</time></trkpt><trkpt lat="45.7143767" lon="8.5354483"><ele>313.2</ele><time>2026-04-05T13:40:52.279Z</time></trkpt><trkpt lat="45.7144333" lon="8.5355267"><ele>310.40000000000003</ele><time>2026-04-05T13:40:54.286Z</time></trkpt><trkpt lat="45.7144817" lon="8.5356317"><ele>307.6</ele><time>2026-04-05T13:40:56.282Z</time></trkpt><trkpt lat="45.71453" lon="8.535755"><ele>304.8</ele><time>2026-04-05T13:40:58.279Z</time></trkpt><trkpt lat="45.7145933" lon="8.5358683"><ele>302.0</ele><time>2026-04-05T13:41:00.281Z</time></trkpt><trkpt lat="45.714665" lon="8.5359767"><ele>302.0</ele><time>2026-04-05T13:41:02.28Z</time></trkpt><trkpt lat="45.714745" lon="8.536085"><ele>302.0</ele><time>2026-04-05T13:41:04.279Z</time></trkpt><trkpt lat="45.7148017" lon="8.53619"><ele>302.0</ele><time>2026-04-05T13:41:06.282Z</time></trkpt><trkpt lat="45.7148367" lon="8.5362967"><ele>302.0</ele><time>2026-04-05T13:41:08.287Z</time></trkpt><trkpt lat="45.7148617" lon="8.5364067"><ele>302.0</ele><time>2026-04-05T13:41:10.281Z</time></trkpt><trkpt lat="45.7148933" lon="8.53653"><ele>300.83333333333337</ele><time>2026-04-05T13:41:12.28Z</time></trkpt><trkpt lat="45.7149033" lon="8.536645"><ele>299.6666666666667</ele><time>2026-04-05T13:41:14.282Z</time></trkpt><trkpt lat="45.7148717" lon="8.5367367"><ele>298.5</ele><time>2026-04-05T13:41:16.281Z</time></trkpt><trkpt lat="45.7148117" lon="8.5368333"><ele>297.3333333333333</ele><time>2026-04-05T13:41:18.281Z</time></trkpt><trkpt lat="45.71475" lon="8.5369267"><ele>296.16666666666663</ele><time>2026-04-05T13:41:20.283Z</time></trkpt><trkpt lat="45.7146833" lon="8.53701"><ele>295.0</ele><time>2026-04-05T13:41:22.279Z</time></trkpt><trkpt lat="45.714615" lon="8.5370883"><ele>294.3333333333333</ele><time>2026-04-05T13:41:24.281Z</time></trkpt><trkpt lat="45.7145467" lon="8.5371633"><ele>293.66666666666663</ele><time>2026-04-05T13:41:26.281Z</time></trkpt><trkpt lat="45.7144883" lon="8.53724"><ele>293.0</ele><time>2026-04-05T13:41:28.283Z</time></trkpt><trkpt lat="45.7144567" lon="8.5373233"><ele>292.3333333333333</ele><time>2026-04-05T13:41:30.283Z</time></trkpt><trkpt lat="45.7144717" lon="8.5374217"><ele>291.6666666666667</ele><time>2026-04-05T13:41:33.284Z</time></trkpt><trkpt lat="45.7145217" lon="8.537485"><ele>291.0</ele><time>2026-04-05T13:41:38.283Z</time></trkpt><trkpt lat="45.7150033" lon="8.5381967"><ele>290.3333333333333</ele><time>2026-04-05T13:41:55.281Z</time></trkpt><trkpt lat="45.7150733" lon="8.538235"><ele>289.6666666666667</ele><time>2026-04-05T13:41:56.281Z</time></trkpt><trkpt lat="45.7151617" lon="8.538315"><ele>289.0</ele><time>2026-04-05T13:41:58.279Z</time></trkpt><trkpt lat="45.7152317" lon="8.53838"><ele>288.33333333333337</ele><time>2026-04-05T13:42:00.282Z</time></trkpt><trkpt lat="45.7152983" lon="8.5384383"><ele>287.6666666666667</ele><time>2026-04-05T13:42:02.282Z</time></trkpt><trkpt lat="45.71537" lon="8.53851"><ele>287.0</ele><time>2026-04-05T13:42:04.282Z</time></trkpt><trkpt lat="45.7154417" lon="8.538575"><ele>286.0</ele><time>2026-04-05T13:42:06.285Z</time></trkpt><trkpt lat="45.7155267" lon="8.53866"><ele>285.0</ele><time>2026-04-05T13:42:08.282Z</time></trkpt><trkpt lat="45.7156083" lon="8.5387533"><ele>284.0</ele><time>2026-04-05T13:42:10.281Z</time></trkpt><trkpt lat="45.7156717" lon="8.5388283"><ele>283.0</ele><time>2026-04-05T13:42:12.282Z</time></trkpt><trkpt lat="45.71575" lon="8.53888"><ele>282.0</ele><time>2026-04-05T13:42:15.286Z</time></trkpt><trkpt lat="45.7158167" lon="8.5388267"><ele>282.0</ele><time>2026-04-05T13:42:18.278Z</time></trkpt><trkpt lat="45.7159467" lon="8.5387667"><ele>282.0</ele><time>2026-04-05T13:42:47.281Z</time></trkpt><trkpt lat="45.7160217" lon="8.5387717"><ele>282.0</ele><time>2026-04-05T13:42:51.279Z</time></trkpt><trkpt lat="45.716105" lon="8.5388133"><ele>282.0</ele><time>2026-04-05T13:42:54.28Z</time></trkpt><trkpt lat="45.7161617" lon="8.53886"><ele>282.0</ele><time>2026-04-05T13:42:56.279Z</time></trkpt><trkpt lat="45.7162117" lon="8.5389167"><ele>282.0</ele><time>2026-04-05T13:42:58.282Z</time></trkpt><trkpt lat="45.7162667" lon="8.538975"><ele>281.6666666666667</ele><time>2026-04-05T13:43:00.281Z</time></trkpt><trkpt lat="45.716325" lon="8.5390433"><ele>281.3333333333333</ele><time>2026-04-05T13:43:02.282Z</time></trkpt><trkpt lat="45.7163817" lon="8.5391133"><ele>281.0</ele><time>2026-04-05T13:43:04.281Z</time></trkpt><trkpt lat="45.7164433" lon="8.5391817"><ele>280.66666666666663</ele><time>2026-04-05T13:43:06.282Z</time></trkpt><trkpt lat="45.7165083" lon="8.5392517"><ele>280.3333333333333</ele><time>2026-04-05T13:43:08.281Z</time></trkpt><trkpt lat="45.71657" lon="8.5393233"><ele>280.0</ele><time>2026-04-05T13:43:10.279Z</time></trkpt><trkpt lat="45.7166333" lon="8.53937"><ele>280.0</ele><time>2026-04-05T13:43:12.275Z</time></trkpt><trkpt lat="45.7167083" lon="8.5394217"><ele>280.0</ele><time>2026-04-05T13:43:14.284Z</time></trkpt><trkpt lat="45.7167733" lon="8.5394567"><ele>280.0</ele><time>2026-04-05T13:43:16.278Z</time></trkpt><trkpt lat="45.7168433" lon="8.539505"><ele>280.0</ele><time>2026-04-05T13:43:18.279Z</time></trkpt><trkpt lat="45.7169083" lon="8.5395533"><ele>280.0</ele><time>2026-04-05T13:43:20.281Z</time></trkpt><trkpt lat="45.716975" lon="8.53961"><ele>280.0</ele><time>2026-04-05T13:43:22.28Z</time></trkpt><trkpt lat="45.71704" lon="8.53968"><ele>279.16666666666663</ele><time>2026-04-05T13:43:25.279Z</time></trkpt><trkpt lat="45.7171067" lon="8.5397467"><ele>278.3333333333333</ele><time>2026-04-05T13:43:28.28Z</time></trkpt><trkpt lat="45.7171667" lon="8.5398117"><ele>277.5</ele><time>2026-04-05T13:43:32.28Z</time></trkpt><trkpt lat="45.7172233" lon="8.5398633"><ele>276.6666666666667</ele><time>2026-04-05T13:43:36.282Z</time></trkpt><trkpt lat="45.7172683" lon="8.53995"><ele>275.83333333333337</ele><time>2026-04-05T13:43:40.275Z</time></trkpt><trkpt lat="45.7173317" lon="8.54002"><ele>275.0</ele><time>2026-04-05T13:43:44.283Z</time></trkpt><trkpt lat="45.7173883" lon="8.5400833"><ele>275.0</ele><time>2026-04-05T13:43:48.28Z</time></trkpt><trkpt lat="45.717445" lon="8.5401633"><ele>275.0</ele><time>2026-04-05T13:43:52.278Z</time></trkpt><trkpt lat="45.7175183" lon="8.5401917"><ele>275.0</ele><time>2026-04-05T13:43:56.281Z</time></trkpt><trkpt lat="45.7175817" lon="8.5402033"><ele>275.0</ele><time>2026-04-05T13:43:59.278Z</time></trkpt><trkpt lat="45.717645" lon="8.5402283"><ele>275.0</ele><time>2026-04-05T13:44:06.277Z</time></trkpt><trkpt lat="45.7176783" lon="8.54015"><ele>275.0</ele><time>2026-04-05T13:44:12.28Z</time></trkpt><trkpt lat="45.717745" lon="8.540115"><ele>275.0</ele><time>2026-04-05T13:44:19.281Z</time></trkpt><trkpt lat="45.7178133" lon="8.5401"><ele>274.8571428571429</ele><time>2026-04-05T13:44:24.28Z</time></trkpt><trkpt lat="45.7178733" lon="8.5400667"><ele>274.7142857142857</ele><time>2026-04-05T13:44:28.279Z</time></trkpt><trkpt lat="45.717935" lon="8.5400167"><ele>274.57142857142856</ele><time>2026-04-05T13:44:32.28Z</time></trkpt><trkpt lat="45.7179967" lon="8.5399583"><ele>274.42857142857144</ele><time>2026-04-05T13:44:36.28Z</time></trkpt><trkpt lat="45.7180583" lon="8.5399033"><ele>274.2857142857143</ele><time>2026-04-05T13:44:40.289Z</time></trkpt><trkpt lat="45.7181133" lon="8.53985"><ele>274.14285714285717</ele><time>2026-04-05T13:44:44.282Z</time></trkpt><trkpt lat="45.7181633" lon="8.539795"><ele>274.0</ele><time>2026-04-05T13:44:48.279Z</time></trkpt><trkpt lat="45.71822" lon="8.5397333"><ele>274.00000000000006</ele><time>2026-04-05T13:44:52.281Z</time></trkpt><trkpt lat="45.7182617" lon="8.53963"><ele>274.0</ele><time>2026-04-05T13:44:56.28Z</time></trkpt><trkpt lat="45.718295" lon="8.5395517"><ele>274.0</ele><time>2026-04-05T13:44:59.276Z</time></trkpt><trkpt lat="45.718335" lon="8.5394683"><ele>274.0</ele><time>2026-04-05T13:45:02.283Z</time></trkpt><trkpt lat="45.7183817" lon="8.5394"><ele>274.0</ele><time>2026-04-05T13:45:05.281Z</time></trkpt><trkpt lat="45.718435" lon="8.53935"><ele>274.00000000000006</ele><time>2026-04-05T13:45:08.282Z</time></trkpt><trkpt lat="45.7184967" lon="8.53931"><ele>274.0</ele><time>2026-04-05T13:45:13.279Z</time></trkpt><trkpt lat="45.71843" lon="8.5393317"><ele>274.14285714285717</ele><time>2026-04-05T13:45:34.277Z</time></trkpt><trkpt lat="45.7184967" lon="8.5393"><ele>274.2857142857143</ele><time>2026-04-05T13:46:31.28Z</time></trkpt><trkpt lat="45.7185683" lon="8.5392883"><ele>274.42857142857144</ele><time>2026-04-05T13:47:28.281Z</time></trkpt><trkpt lat="45.7186367" lon="8.53929"><ele>274.57142857142856</ele><time>2026-04-05T13:47:32.28Z</time></trkpt><trkpt lat="45.7187" lon="8.53927"><ele>274.7142857142857</ele><time>2026-04-05T13:47:35.279Z</time></trkpt><trkpt lat="45.7187633" lon="8.5392333"><ele>274.8571428571429</ele><time>2026-04-05T13:47:38.284Z</time></trkpt><trkpt lat="45.7188283" lon="8.5391767"><ele>275.0</ele><time>2026-04-05T13:47:41.275Z</time></trkpt><trkpt lat="45.7188867" lon="8.5391167"><ele>275.1666666666667</ele><time>2026-04-05T13:47:44.283Z</time></trkpt><trkpt lat="45.71895" lon="8.5390567"><ele>275.33333333333337</ele><time>2026-04-05T13:47:47.28Z</time></trkpt><trkpt lat="45.7190117" lon="8.5389933"><ele>275.5</ele><time>2026-04-05T13:47:50.29Z</time></trkpt><trkpt lat="45.719085" lon="8.5389233"><ele>275.6666666666667</ele><time>2026-04-05T13:47:53.279Z</time></trkpt><trkpt lat="45.71916" lon="8.5388467"><ele>275.8333333333333</ele><time>2026-04-05T13:47:56.28Z</time></trkpt><trkpt lat="45.7192367" lon="8.5387667"><ele>276.0</ele><time>2026-04-05T13:47:59.276Z</time></trkpt><trkpt lat="45.7192917" lon="8.538715"><ele>276.14285714285717</ele><time>2026-04-05T13:48:01.279Z</time></trkpt><trkpt lat="45.7193517" lon="8.5386567"><ele>276.28571428571433</ele><time>2026-04-05T13:48:03.278Z</time></trkpt><trkpt lat="45.71941" lon="8.5385983"><ele>276.42857142857144</ele><time>2026-04-05T13:48:05.28Z</time></trkpt><trkpt lat="45.719465" lon="8.5385417"><ele>276.57142857142856</ele><time>2026-04-05T13:48:07.28Z</time></trkpt><trkpt lat="45.7195183" lon="8.5384867"><ele>276.71428571428567</ele><time>2026-04-05T13:48:09.28Z</time></trkpt><trkpt lat="45.7195717" lon="8.5384317"><ele>276.85714285714283</ele><time>2026-04-05T13:48:11.279Z</time></trkpt><trkpt lat="45.7196283" lon="8.5383767"><ele>277.0</ele><time>2026-04-05T13:48:13.283Z</time></trkpt><trkpt lat="45.7196833" lon="8.53832"><ele>277.1428571428571</ele><time>2026-04-05T13:48:15.283Z</time></trkpt><trkpt lat="45.7197417" lon="8.53826"><ele>277.2857142857143</ele><time>2026-04-05T13:48:17.282Z</time></trkpt><trkpt lat="45.7198017" lon="8.5382"><ele>277.42857142857144</ele><time>2026-04-05T13:48:19.281Z</time></trkpt><trkpt lat="45.7198633" lon="8.53814"><ele>277.57142857142856</ele><time>2026-04-05T13:48:21.28Z</time></trkpt><trkpt lat="45.7199233" lon="8.53808"><ele>277.7142857142857</ele><time>2026-04-05T13:48:23.278Z</time></trkpt><trkpt lat="45.7199817" lon="8.538025"><ele>277.85714285714283</ele><time>2026-04-05T13:48:25.279Z</time></trkpt><trkpt lat="45.7200317" lon="8.53797"><ele>278.0</ele><time>2026-04-05T13:48:27.277Z</time></trkpt><trkpt lat="45.720085" lon="8.537915"><ele>278.0</ele><time>2026-04-05T13:48:29.277Z</time></trkpt><trkpt lat="45.7201533" lon="8.5378417"><ele>278.0</ele><time>2026-04-05T13:48:31.279Z</time></trkpt><trkpt lat="45.7202267" lon="8.53777"><ele>278.0</ele><time>2026-04-05T13:48:33.279Z</time></trkpt><trkpt lat="45.7203133" lon="8.5376783"><ele>278.0</ele><time>2026-04-05T13:48:36.28Z</time></trkpt><trkpt lat="45.720375" lon="8.5376183"><ele>278.0</ele><time>2026-04-05T13:48:39.285Z</time></trkpt><trkpt lat="45.7204283" lon="8.5375617"><ele>278.0</ele><time>2026-04-05T13:48:42.278Z</time></trkpt><trkpt lat="45.72048" lon="8.5375067"><ele>278.33333333333337</ele><time>2026-04-05T13:48:44.278Z</time></trkpt><trkpt lat="45.7205533" lon="8.53743"><ele>278.6666666666667</ele><time>2026-04-05T13:48:46.279Z</time></trkpt><trkpt lat="45.720615" lon="8.537375"><ele>279.0</ele><time>2026-04-05T13:48:48.277Z</time></trkpt><trkpt lat="45.7206683" lon="8.5373133"><ele>279.3333333333333</ele><time>2026-04-05T13:48:51.273Z</time></trkpt><trkpt lat="45.7207383" lon="8.537245"><ele>279.66666666666663</ele><time>2026-04-05T13:48:56.282Z</time></trkpt><trkpt lat="45.7208" lon="8.53718"><ele>280.0</ele><time>2026-04-05T13:49:00.279Z</time></trkpt><trkpt lat="45.72086" lon="8.537115"><ele>280.0</ele><time>2026-04-05T13:49:04.282Z</time></trkpt><trkpt lat="45.720915" lon="8.53706"><ele>280.0</ele><time>2026-04-05T13:49:07.281Z</time></trkpt><trkpt lat="45.720985" lon="8.5369967"><ele>280.0</ele><time>2026-04-05T13:49:11.278Z</time></trkpt><trkpt lat="45.7210367" lon="8.5369417"><ele>280.0</ele><time>2026-04-05T13:49:14.289Z</time></trkpt><trkpt lat="45.721105" lon="8.5368717"><ele>280.0</ele><time>2026-04-05T13:49:18.28Z</time></trkpt><trkpt lat="45.72116" lon="8.53682"><ele>280.0</ele><time>2026-04-05T13:49:21.281Z</time></trkpt><trkpt lat="45.7212117" lon="8.5367667"><ele>280.0</ele><time>2026-04-05T13:49:24.279Z</time></trkpt><trkpt lat="45.7212767" lon="8.5367017"><ele>282.0</ele><time>2026-04-05T13:49:28.274Z</time></trkpt><trkpt lat="45.721325" lon="8.53664"><ele>284.0</ele><time>2026-04-05T13:49:31.278Z</time></trkpt><trkpt lat="45.7213867" lon="8.53657"><ele>286.0</ele><time>2026-04-05T13:49:35.28Z</time></trkpt><trkpt lat="45.721445" lon="8.5365017"><ele>288.0</ele><time>2026-04-05T13:49:39.281Z</time></trkpt><trkpt lat="45.721495" lon="8.5364417"><ele>290.0</ele><time>2026-04-05T13:49:42.278Z</time></trkpt><trkpt lat="45.7215467" lon="8.53639"><ele>292.0</ele><time>2026-04-05T13:49:45.281Z</time></trkpt><trkpt lat="45.7216017" lon="8.5363267"><ele>294.0</ele><time>2026-04-05T13:49:48.279Z</time></trkpt><trkpt lat="45.721655" lon="8.5362667"><ele>294.14285714285717</ele><time>2026-04-05T13:49:51.278Z</time></trkpt><trkpt lat="45.72171" lon="8.5362"><ele>294.2857142857143</ele><time>2026-04-05T13:49:54.279Z</time></trkpt><trkpt lat="45.7217617" lon="8.5361183"><ele>294.42857142857144</ele><time>2026-04-05T13:49:58.278Z</time></trkpt><trkpt lat="45.7218117" lon="8.5360467"><ele>294.57142857142856</ele><time>2026-04-05T13:50:02.282Z</time></trkpt><trkpt lat="45.721865" lon="8.53598"><ele>294.7142857142857</ele><time>2026-04-05T13:50:06.28Z</time></trkpt><trkpt lat="45.7219217" lon="8.5359083"><ele>294.8571428571429</ele><time>2026-04-05T13:50:10.28Z</time></trkpt><trkpt lat="45.7219733" lon="8.5358333"><ele>295.0</ele><time>2026-04-05T13:50:14.273Z</time></trkpt><trkpt lat="45.7220317" lon="8.53576"><ele>296.14285714285717</ele><time>2026-04-05T13:50:18.28Z</time></trkpt><trkpt lat="45.7220867" lon="8.5356883"><ele>297.2857142857143</ele><time>2026-04-05T13:50:22.281Z</time></trkpt><trkpt lat="45.72214" lon="8.535615"><ele>298.42857142857144</ele><time>2026-04-05T13:50:26.283Z</time></trkpt><trkpt lat="45.7221967" lon="8.53554"><ele>299.57142857142856</ele><time>2026-04-05T13:50:30.279Z</time></trkpt><trkpt lat="45.7222567" lon="8.5354717"><ele>300.7142857142857</ele><time>2026-04-05T13:50:34.28Z</time></trkpt><trkpt lat="45.72231" lon="8.5354017"><ele>301.8571428571429</ele><time>2026-04-05T13:50:38.283Z</time></trkpt><trkpt lat="45.7223667" lon="8.5353317"><ele>303.0</ele><time>2026-04-05T13:50:42.279Z</time></trkpt><trkpt lat="45.72242" lon="8.5352617"><ele>303.1666666666667</ele><time>2026-04-05T13:50:46.275Z</time></trkpt><trkpt lat="45.722475" lon="8.53519"><ele>303.3333333333333</ele><time>2026-04-05T13:50:50.279Z</time></trkpt><trkpt lat="45.7225283" lon="8.5351183"><ele>303.5</ele><time>2026-04-05T13:50:54.279Z</time></trkpt><trkpt lat="45.7225817" lon="8.5350433"><ele>303.66666666666663</ele><time>2026-04-05T13:50:58.279Z</time></trkpt><trkpt lat="45.72264" lon="8.5349733"><ele>303.8333333333333</ele><time>2026-04-05T13:51:02.282Z</time></trkpt><trkpt lat="45.7227017" lon="8.5349033"><ele>304.0</ele><time>2026-04-05T13:51:06.281Z</time></trkpt><trkpt lat="45.72276" lon="8.5348333"><ele>304.3333333333333</ele><time>2026-04-05T13:51:10.282Z</time></trkpt><trkpt lat="45.7228167" lon="8.5347683"><ele>304.66666666666663</ele><time>2026-04-05T13:51:14.273Z</time></trkpt><trkpt lat="45.7228733" lon="8.534695"><ele>305.0</ele><time>2026-04-05T13:51:18.277Z</time></trkpt><trkpt lat="45.72293" lon="8.53462"><ele>305.3333333333333</ele><time>2026-04-05T13:51:22.278Z</time></trkpt><trkpt lat="45.7229833" lon="8.534545"><ele>305.6666666666667</ele><time>2026-04-05T13:51:26.281Z</time></trkpt><trkpt lat="45.723035" lon="8.53446"><ele>306.0</ele><time>2026-04-05T13:51:30.278Z</time></trkpt><trkpt lat="45.72309" lon="8.53438"><ele>306.1666666666667</ele><time>2026-04-05T13:51:34.28Z</time></trkpt><trkpt lat="45.7231467" lon="8.5342933"><ele>306.3333333333333</ele><time>2026-04-05T13:51:38.28Z</time></trkpt><trkpt lat="45.7232" lon="8.5342033"><ele>306.5</ele><time>2026-04-05T13:51:42.278Z</time></trkpt><trkpt lat="45.7232567" lon="8.5341183"><ele>306.66666666666663</ele><time>2026-04-05T13:51:46.278Z</time></trkpt><trkpt lat="45.7233067" lon="8.5340333"><ele>306.8333333333333</ele><time>2026-04-05T13:51:50.279Z</time></trkpt><trkpt lat="45.7233633" lon="8.5339567"><ele>307.0</ele><time>2026-04-05T13:51:54.283Z</time></trkpt><trkpt lat="45.72342" lon="8.5338733"><ele>306.99999999999994</ele><time>2026-04-05T13:51:58.275Z</time></trkpt><trkpt lat="45.7234667" lon="8.53381"><ele>307.0</ele><time>2026-04-05T13:52:01.274Z</time></trkpt><trkpt lat="45.7235217" lon="8.5337233"><ele>307.0</ele><time>2026-04-05T13:52:05.279Z</time></trkpt><trkpt lat="45.7235783" lon="8.53364"><ele>307.0</ele><time>2026-04-05T13:52:09.279Z</time></trkpt><trkpt lat="45.7236283" lon="8.533585"><ele>307.0</ele><time>2026-04-05T13:52:12.277Z</time></trkpt><trkpt lat="45.723705" lon="8.5335483"><ele>306.99999999999994</ele><time>2026-04-05T13:52:16.278Z</time></trkpt><trkpt lat="45.7237683" lon="8.53353"><ele>307.0</ele><time>2026-04-05T13:52:19.282Z</time></trkpt><trkpt lat="45.7238317" lon="8.5335133"><ele>306.99999999999994</ele><time>2026-04-05T13:52:22.281Z</time></trkpt><trkpt lat="45.7238967" lon="8.5334833"><ele>307.0</ele><time>2026-04-05T13:52:26.279Z</time></trkpt><trkpt lat="45.723965" lon="8.5335067"><ele>307.0</ele><time>2026-04-05T13:53:07.28Z</time></trkpt><trkpt lat="45.724035" lon="8.5335717"><ele>307.0</ele><time>2026-04-05T13:53:11.279Z</time></trkpt><trkpt lat="45.7241017" lon="8.5336483"><ele>307.0</ele><time>2026-04-05T13:53:14.28Z</time></trkpt><trkpt lat="45.7241533" lon="8.5337"><ele>306.99999999999994</ele><time>2026-04-05T13:53:16.277Z</time></trkpt><trkpt lat="45.7242183" lon="8.5337617"><ele>307.0</ele><time>2026-04-05T13:53:18.281Z</time></trkpt><trkpt lat="45.7242917" lon="8.5338317"><ele>307.0</ele><time>2026-04-05T13:53:20.28Z</time></trkpt><trkpt lat="45.72437" lon="8.53391"><ele>307.0</ele><time>2026-04-05T13:53:22.279Z</time></trkpt><trkpt lat="45.7244567" lon="8.5339917"><ele>307.0</ele><time>2026-04-05T13:53:24.277Z</time></trkpt><trkpt lat="45.724545" lon="8.5340767"><ele>307.0</ele><time>2026-04-05T13:53:26.282Z</time></trkpt><trkpt lat="45.72464" lon="8.5341633"><ele>307.0</ele><time>2026-04-05T13:53:28.279Z</time></trkpt><trkpt lat="45.7247333" lon="8.53425"><ele>307.2</ele><time>2026-04-05T13:53:30.278Z</time></trkpt><trkpt lat="45.7248233" lon="8.534335"><ele>307.4</ele><time>2026-04-05T13:53:32.286Z</time></trkpt><trkpt lat="45.7249117" lon="8.5344117"><ele>307.6</ele><time>2026-04-05T13:53:34.28Z</time></trkpt><trkpt lat="45.7249967" lon="8.5344817"><ele>307.8</ele><time>2026-04-05T13:53:36.279Z</time></trkpt><trkpt lat="45.725075" lon="8.5345617"><ele>308.0</ele><time>2026-04-05T13:53:38.274Z</time></trkpt><trkpt lat="45.7251517" lon="8.5346317"><ele>308.0</ele><time>2026-04-05T13:53:40.274Z</time></trkpt><trkpt lat="45.725225" lon="8.5347133"><ele>308.0</ele><time>2026-04-05T13:53:42.273Z</time></trkpt><trkpt lat="45.7253" lon="8.5347833"><ele>308.0</ele><time>2026-04-05T13:53:44.273Z</time></trkpt><trkpt lat="45.72537" lon="8.53485"><ele>308.0</ele><time>2026-04-05T13:53:46.272Z</time></trkpt><trkpt lat="45.725445" lon="8.534915"><ele>308.0</ele><time>2026-04-05T13:53:48.275Z</time></trkpt><trkpt lat="45.72551" lon="8.5349667"><ele>308.0</ele><time>2026-04-05T13:53:50.276Z</time></trkpt><trkpt lat="45.7255667" lon="8.5350167"><ele>307.85714285714283</ele><time>2026-04-05T13:53:52.275Z</time></trkpt><trkpt lat="45.7256383" lon="8.5350433"><ele>307.7142857142857</ele><time>2026-04-05T13:53:55.276Z</time></trkpt><trkpt lat="45.7257033" lon="8.5350583"><ele>307.57142857142856</ele><time>2026-04-05T13:53:57.272Z</time></trkpt><trkpt lat="45.725775" lon="8.53507"><ele>307.42857142857144</ele><time>2026-04-05T13:53:59.273Z</time></trkpt><trkpt lat="45.7258467" lon="8.53506"><ele>307.2857142857143</ele><time>2026-04-05T13:54:01.272Z</time></trkpt><trkpt lat="45.7259167" lon="8.53504"><ele>307.1428571428571</ele><time>2026-04-05T13:54:03.272Z</time></trkpt><trkpt lat="45.725985" lon="8.5350233"><ele>307.0</ele><time>2026-04-05T13:54:05.272Z</time></trkpt><trkpt lat="45.7260617" lon="8.5350117"><ele>307.0</ele><time>2026-04-05T13:54:07.274Z</time></trkpt><trkpt lat="45.7261317" lon="8.5349967"><ele>307.0</ele><time>2026-04-05T13:54:09.274Z</time></trkpt><trkpt lat="45.7261917" lon="8.5349667"><ele>307.0</ele><time>2026-04-05T13:54:11.279Z</time></trkpt><trkpt lat="45.72627" lon="8.5348833"><ele>307.0</ele><time>2026-04-05T13:54:14.279Z</time></trkpt><trkpt lat="45.72633" lon="8.5348233"><ele>307.0</ele><time>2026-04-05T13:54:16.275Z</time></trkpt><trkpt lat="45.726405" lon="8.5347533"><ele>307.0</ele><time>2026-04-05T13:54:18.278Z</time></trkpt><trkpt lat="45.7264733" lon="8.5346933"><ele>307.0</ele><time>2026-04-05T13:54:20.277Z</time></trkpt><trkpt lat="45.7265467" lon="8.5346233"><ele>307.0</ele><time>2026-04-05T13:54:22.276Z</time></trkpt><trkpt lat="45.72662" lon="8.534555"><ele>307.0</ele><time>2026-04-05T13:54:24.276Z</time></trkpt><trkpt lat="45.7266883" lon="8.5344867"><ele>307.0</ele><time>2026-04-05T13:54:26.276Z</time></trkpt><trkpt lat="45.726755" lon="8.5344167"><ele>307.0</ele><time>2026-04-05T13:54:28.276Z</time></trkpt><trkpt lat="45.726815" lon="8.534355"><ele>307.0</ele><time>2026-04-05T13:54:30.277Z</time></trkpt><trkpt lat="45.726875" lon="8.534295"><ele>306.8333333333333</ele><time>2026-04-05T13:54:32.275Z</time></trkpt><trkpt lat="45.7269383" lon="8.534235"><ele>306.66666666666663</ele><time>2026-04-05T13:54:34.277Z</time></trkpt><trkpt lat="45.727005" lon="8.5341733"><ele>306.5</ele><time>2026-04-05T13:54:36.274Z</time></trkpt><trkpt lat="45.72707" lon="8.53411"><ele>306.3333333333333</ele><time>2026-04-05T13:54:38.276Z</time></trkpt><trkpt lat="45.7271333" lon="8.5340467"><ele>306.1666666666667</ele><time>2026-04-05T13:54:40.273Z</time></trkpt><trkpt lat="45.7271967" lon="8.5339833"><ele>306.0</ele><time>2026-04-05T13:54:42.275Z</time></trkpt><trkpt lat="45.72726" lon="8.5339217"><ele>306.0</ele><time>2026-04-05T13:54:44.277Z</time></trkpt><trkpt lat="45.7273217" lon="8.5338633"><ele>306.0</ele><time>2026-04-05T13:54:46.275Z</time></trkpt><trkpt lat="45.7273833" lon="8.5338067"><ele>306.0</ele><time>2026-04-05T13:54:48.273Z</time></trkpt><trkpt lat="45.7274483" lon="8.5337467"><ele>306.0</ele><time>2026-04-05T13:54:50.28Z</time></trkpt><trkpt lat="45.7275133" lon="8.5336817"><ele>306.0</ele><time>2026-04-05T13:54:52.277Z</time></trkpt><trkpt lat="45.7275767" lon="8.53362"><ele>306.0</ele><time>2026-04-05T13:54:54.278Z</time></trkpt><trkpt lat="45.7276417" lon="8.5335583"><ele>306.1666666666667</ele><time>2026-04-05T13:54:56.279Z</time></trkpt><trkpt lat="45.7277083" lon="8.5334967"><ele>306.3333333333333</ele><time>2026-04-05T13:54:58.278Z</time></trkpt><trkpt lat="45.727775" lon="8.5334367"><ele>306.5</ele><time>2026-04-05T13:55:00.28Z</time></trkpt><trkpt lat="45.7278383" lon="8.5333783"><ele>306.66666666666663</ele><time>2026-04-05T13:55:02.281Z</time></trkpt><trkpt lat="45.7279017" lon="8.5333183"><ele>306.8333333333333</ele><time>2026-04-05T13:55:04.28Z</time></trkpt><trkpt lat="45.727965" lon="8.5332583"><ele>307.0</ele><time>2026-04-05T13:55:06.28Z</time></trkpt><trkpt lat="45.7280333" lon="8.533195"><ele>307.0</ele><time>2026-04-05T13:55:08.28Z</time></trkpt><trkpt lat="45.728105" lon="8.533125"><ele>307.0</ele><time>2026-04-05T13:55:10.275Z</time></trkpt><trkpt lat="45.7281783" lon="8.5330533"><ele>307.0</ele><time>2026-04-05T13:55:12.28Z</time></trkpt><trkpt lat="45.7282533" lon="8.532985"><ele>307.0</ele><time>2026-04-05T13:55:14.28Z</time></trkpt><trkpt lat="45.728325" lon="8.532915"><ele>307.0</ele><time>2026-04-05T13:55:16.277Z</time></trkpt><trkpt lat="45.7284" lon="8.5328467"><ele>307.0</ele><time>2026-04-05T13:55:18.281Z</time></trkpt><trkpt lat="45.728475" lon="8.5327767"><ele>307.4</ele><time>2026-04-05T13:55:20.283Z</time></trkpt><trkpt lat="45.728555" lon="8.5327033"><ele>307.79999999999995</ele><time>2026-04-05T13:55:22.281Z</time></trkpt><trkpt lat="45.7286367" lon="8.5326267"><ele>308.2</ele><time>2026-04-05T13:55:24.279Z</time></trkpt><trkpt lat="45.72872" lon="8.53255"><ele>308.59999999999997</ele><time>2026-04-05T13:55:26.277Z</time></trkpt><trkpt lat="45.7288033" lon="8.532465"><ele>309.0</ele><time>2026-04-05T13:55:28.279Z</time></trkpt><trkpt lat="45.72889" lon="8.5323717"><ele>309.0</ele><time>2026-04-05T13:55:30.282Z</time></trkpt><trkpt lat="45.728975" lon="8.53227"><ele>309.0</ele><time>2026-04-05T13:55:32.278Z</time></trkpt><trkpt lat="45.7290633" lon="8.5321633"><ele>309.0</ele><time>2026-04-05T13:55:34.278Z</time></trkpt><trkpt lat="45.7291517" lon="8.53205"><ele>309.0</ele><time>2026-04-05T13:55:36.279Z</time></trkpt><trkpt lat="45.7292433" lon="8.5319317"><ele>308.6666666666667</ele><time>2026-04-05T13:55:38.281Z</time></trkpt><trkpt lat="45.7292917" lon="8.53187"><ele>308.3333333333333</ele><time>2026-04-05T13:55:39.279Z</time></trkpt><trkpt lat="45.7293867" lon="8.5317483"><ele>308.0</ele><time>2026-04-05T13:55:41.278Z</time></trkpt><trkpt lat="45.7294333" lon="8.5316867"><ele>307.66666666666663</ele><time>2026-04-05T13:55:42.275Z</time></trkpt><trkpt lat="45.7294817" lon="8.531625"><ele>307.3333333333333</ele><time>2026-04-05T13:55:43.277Z</time></trkpt><trkpt lat="45.7295283" lon="8.5315617"><ele>307.0</ele><time>2026-04-05T13:55:44.28Z</time></trkpt><trkpt lat="45.7295767" lon="8.5314983"><ele>306.85714285714283</ele><time>2026-04-05T13:55:45.279Z</time></trkpt><trkpt lat="45.729625" lon="8.5314367"><ele>306.7142857142857</ele><time>2026-04-05T13:55:46.281Z</time></trkpt><trkpt lat="45.729675" lon="8.531375"><ele>306.57142857142856</ele><time>2026-04-05T13:55:47.28Z</time></trkpt><trkpt lat="45.7297267" lon="8.5313183"><ele>306.42857142857144</ele><time>2026-04-05T13:55:48.278Z</time></trkpt><trkpt lat="45.729775" lon="8.5312483"><ele>306.2857142857143</ele><time>2026-04-05T13:55:49.279Z</time></trkpt><trkpt lat="45.7298233" lon="8.531175"><ele>306.1428571428571</ele><time>2026-04-05T13:55:50.281Z</time></trkpt><trkpt lat="45.72988" lon="8.5311133"><ele>306.0</ele><time>2026-04-05T13:55:51.279Z</time></trkpt><trkpt lat="45.7299367" lon="8.5310467"><ele>306.42857142857144</ele><time>2026-04-05T13:55:52.28Z</time></trkpt><trkpt lat="45.7299917" lon="8.5309783"><ele>306.8571428571429</ele><time>2026-04-05T13:55:53.279Z</time></trkpt><trkpt lat="45.7300467" lon="8.5309067"><ele>307.28571428571433</ele><time>2026-04-05T13:55:54.276Z</time></trkpt><trkpt lat="45.7301" lon="8.530835"><ele>307.7142857142857</ele><time>2026-04-05T13:55:55.278Z</time></trkpt><trkpt lat="45.7301533" lon="8.53077"><ele>308.14285714285717</ele><time>2026-04-05T13:55:56.28Z</time></trkpt><trkpt lat="45.730205" lon="8.5306983"><ele>308.5714285714286</ele><time>2026-04-05T13:55:57.277Z</time></trkpt><trkpt lat="45.7302567" lon="8.5306317"><ele>309.0</ele><time>2026-04-05T13:55:58.28Z</time></trkpt><trkpt lat="45.730305" lon="8.5305667"><ele>309.0</ele><time>2026-04-05T13:55:59.278Z</time></trkpt><trkpt lat="45.7303533" lon="8.5305067"><ele>309.0</ele><time>2026-04-05T13:56:00.282Z</time></trkpt><trkpt lat="45.73044" lon="8.5304017"><ele>309.0</ele><time>2026-04-05T13:56:02.279Z</time></trkpt><trkpt lat="45.7305283" lon="8.5302933"><ele>309.0</ele><time>2026-04-05T13:56:04.277Z</time></trkpt><trkpt lat="45.7306183" lon="8.53019"><ele>309.0</ele><time>2026-04-05T13:56:06.281Z</time></trkpt><trkpt lat="45.730695" lon="8.5300883"><ele>309.3333333333333</ele><time>2026-04-05T13:56:08.283Z</time></trkpt><trkpt lat="45.7307633" lon="8.53001"><ele>309.6666666666667</ele><time>2026-04-05T13:56:10.28Z</time></trkpt><trkpt lat="45.7308233" lon="8.5299367"><ele>310.0</ele><time>2026-04-05T13:56:12.28Z</time></trkpt><trkpt lat="45.7308817" lon="8.52986"><ele>310.33333333333337</ele><time>2026-04-05T13:56:14.281Z</time></trkpt><trkpt lat="45.730935" lon="8.5297767"><ele>310.6666666666667</ele><time>2026-04-05T13:56:16.28Z</time></trkpt><trkpt lat="45.7309933" lon="8.5296967"><ele>311.0</ele><time>2026-04-05T13:56:18.283Z</time></trkpt><trkpt lat="45.73107" lon="8.5295917"><ele>312.0</ele><time>2026-04-05T13:56:20.28Z</time></trkpt><trkpt lat="45.731125" lon="8.5295167"><ele>313.0</ele><time>2026-04-05T13:56:21.281Z</time></trkpt><trkpt lat="45.7311917" lon="8.529455"><ele>314.0</ele><time>2026-04-05T13:56:22.279Z</time></trkpt><trkpt lat="45.73125" lon="8.5293767"><ele>315.0</ele><time>2026-04-05T13:56:23.283Z</time></trkpt><trkpt lat="45.7313" lon="8.5292917"><ele>316.0</ele><time>2026-04-05T13:56:24.282Z</time></trkpt><trkpt lat="45.7313533" lon="8.5292017"><ele>317.0</ele><time>2026-04-05T13:56:25.281Z</time></trkpt><trkpt lat="45.7314117" lon="8.5291483"><ele>317.0</ele><time>2026-04-05T13:56:26.283Z</time></trkpt><trkpt lat="45.7314783" lon="8.5290983"><ele>317.0</ele><time>2026-04-05T13:56:27.278Z</time></trkpt><trkpt lat="45.7315383" lon="8.52907"><ele>317.0</ele><time>2026-04-05T13:56:28.281Z</time></trkpt><trkpt lat="45.7316533" lon="8.5290133"><ele>317.0</ele><time>2026-04-05T13:56:30.28Z</time></trkpt><trkpt lat="45.7317483" lon="8.5289917"><ele>317.0</ele><time>2026-04-05T13:56:32.281Z</time></trkpt><trkpt lat="45.7318417" lon="8.528955"><ele>316.1666666666667</ele><time>2026-04-05T13:56:34.276Z</time></trkpt><trkpt lat="45.73193" lon="8.5289517"><ele>315.33333333333337</ele><time>2026-04-05T13:56:36.275Z</time></trkpt><trkpt lat="45.73201" lon="8.5289467"><ele>314.5</ele><time>2026-04-05T13:56:38.281Z</time></trkpt><trkpt lat="45.7320917" lon="8.5289283"><ele>313.6666666666667</ele><time>2026-04-05T13:56:40.28Z</time></trkpt><trkpt lat="45.73219" lon="8.5289267"><ele>312.8333333333333</ele><time>2026-04-05T13:56:42.278Z</time></trkpt><trkpt lat="45.7322633" lon="8.5289183"><ele>312.0</ele><time>2026-04-05T13:56:44.281Z</time></trkpt><trkpt lat="45.73233" lon="8.52891"><ele>312.0</ele><time>2026-04-05T13:56:46.278Z</time></trkpt><trkpt lat="45.732415" lon="8.528905"><ele>312.0</ele><time>2026-04-05T13:56:48.283Z</time></trkpt><trkpt lat="45.7324833" lon="8.5288983"><ele>312.0</ele><time>2026-04-05T13:56:50.285Z</time></trkpt><trkpt lat="45.7325533" lon="8.5288983"><ele>312.0</ele><time>2026-04-05T13:56:52.284Z</time></trkpt><trkpt lat="45.7326283" lon="8.52888"><ele>312.0</ele><time>2026-04-05T13:56:54.288Z</time></trkpt><trkpt lat="45.7327" lon="8.5288733"><ele>312.0</ele><time>2026-04-05T13:56:56.285Z</time></trkpt><trkpt lat="45.7327683" lon="8.5288583"><ele>312.0</ele><time>2026-04-05T13:56:58.28Z</time></trkpt><trkpt lat="45.7328367" lon="8.5288183"><ele>311.5714285714286</ele><time>2026-04-05T13:57:00.28Z</time></trkpt><trkpt lat="45.7328933" lon="8.528765"><ele>311.1428571428571</ele><time>2026-04-05T13:57:02.282Z</time></trkpt><trkpt lat="45.7329417" lon="8.5287067"><ele>310.7142857142857</ele><time>2026-04-05T13:57:04.28Z</time></trkpt><trkpt lat="45.732995" lon="8.528655"><ele>310.28571428571433</ele><time>2026-04-05T13:57:06.281Z</time></trkpt><trkpt lat="45.7330417" lon="8.5285933"><ele>309.8571428571429</ele><time>2026-04-05T13:57:08.287Z</time></trkpt><trkpt lat="45.733085" lon="8.5285233"><ele>309.42857142857144</ele><time>2026-04-05T13:57:10.281Z</time></trkpt><trkpt lat="45.7331433" lon="8.5284283"><ele>309.0</ele><time>2026-04-05T13:57:13.285Z</time></trkpt><trkpt lat="45.7332017" lon="8.528335"><ele>309.0</ele><time>2026-04-05T13:57:16.282Z</time></trkpt><trkpt lat="45.7332633" lon="8.5282483"><ele>309.0</ele><time>2026-04-05T13:57:19.281Z</time></trkpt><trkpt lat="45.7333267" lon="8.5281533"><ele>309.0</ele><time>2026-04-05T13:57:22.278Z</time></trkpt><trkpt lat="45.7333683" lon="8.5280783"><ele>309.0</ele><time>2026-04-05T13:57:24.279Z</time></trkpt><trkpt lat="45.73341" lon="8.5280033"><ele>309.0</ele><time>2026-04-05T13:57:26.284Z</time></trkpt><trkpt lat="45.73346" lon="8.5279333"><ele>309.0</ele><time>2026-04-05T13:57:28.277Z</time></trkpt><trkpt lat="45.7335033" lon="8.5278483"><ele>308.7142857142857</ele><time>2026-04-05T13:57:30.273Z</time></trkpt><trkpt lat="45.7335517" lon="8.5277717"><ele>308.42857142857144</ele><time>2026-04-05T13:57:32.279Z</time></trkpt><trkpt lat="45.7336033" lon="8.527695"><ele>308.1428571428571</ele><time>2026-04-05T13:57:34.278Z</time></trkpt><trkpt lat="45.73366" lon="8.5276167"><ele>307.8571428571429</ele><time>2026-04-05T13:57:36.281Z</time></trkpt><trkpt lat="45.7337033" lon="8.5275367"><ele>307.57142857142856</ele><time>2026-04-05T13:57:38.279Z</time></trkpt><trkpt lat="45.733755" lon="8.5274633"><ele>307.2857142857143</ele><time>2026-04-05T13:57:40.28Z</time></trkpt><trkpt lat="45.7338133" lon="8.527385"><ele>307.0</ele><time>2026-04-05T13:57:42.282Z</time></trkpt><trkpt lat="45.7338633" lon="8.52731"><ele>306.99999999999994</ele><time>2026-04-05T13:57:44.28Z</time></trkpt><trkpt lat="45.733915" lon="8.5272383"><ele>307.0</ele><time>2026-04-05T13:57:46.279Z</time></trkpt><trkpt lat="45.7339733" lon="8.5271633"><ele>307.0</ele><time>2026-04-05T13:57:48.281Z</time></trkpt><trkpt lat="45.7340217" lon="8.5270833"><ele>307.0</ele><time>2026-04-05T13:57:50.28Z</time></trkpt><trkpt lat="45.7340717" lon="8.5270067"><ele>307.0</ele><time>2026-04-05T13:57:52.28Z</time></trkpt><trkpt lat="45.7341133" lon="8.526925"><ele>306.99999999999994</ele><time>2026-04-05T13:57:54.281Z</time></trkpt><trkpt lat="45.7341633" lon="8.5268583"><ele>307.0</ele><time>2026-04-05T13:57:56.28Z</time></trkpt><trkpt lat="45.7342083" lon="8.5267783"><ele>306.99999999999994</ele><time>2026-04-05T13:57:58.28Z</time></trkpt><trkpt lat="45.7342533" lon="8.5266967"><ele>307.0</ele><time>2026-04-05T13:58:00.281Z</time></trkpt><trkpt lat="45.7343033" lon="8.5266117"><ele>307.0</ele><time>2026-04-05T13:58:02.278Z</time></trkpt><trkpt lat="45.73435" lon="8.526535"><ele>307.0</ele><time>2026-04-05T13:58:04.278Z</time></trkpt><trkpt lat="45.7344" lon="8.5264667"><ele>307.0</ele><time>2026-04-05T13:58:06.279Z</time></trkpt><trkpt lat="45.7344483" lon="8.5263933"><ele>306.99999999999994</ele><time>2026-04-05T13:58:08.284Z</time></trkpt><trkpt lat="45.7344983" lon="8.5263083"><ele>307.0</ele><time>2026-04-05T13:58:10.28Z</time></trkpt><trkpt lat="45.7345533" lon="8.5262283"><ele>307.5</ele><time>2026-04-05T13:58:12.278Z</time></trkpt><trkpt lat="45.7346067" lon="8.5261433"><ele>308.0</ele><time>2026-04-05T13:58:14.279Z</time></trkpt><trkpt lat="45.734675" lon="8.52604"><ele>308.5</ele><time>2026-04-05T13:58:16.277Z</time></trkpt><trkpt lat="45.73472" lon="8.525965"><ele>309.0</ele><time>2026-04-05T13:58:17.288Z</time></trkpt><trkpt lat="45.7347667" lon="8.525875"><ele>309.5</ele><time>2026-04-05T13:58:18.281Z</time></trkpt><trkpt lat="45.7348267" lon="8.5257933"><ele>310.0</ele><time>2026-04-05T13:58:19.278Z</time></trkpt><trkpt lat="45.7348867" lon="8.5257017"><ele>310.0</ele><time>2026-04-05T13:58:20.28Z</time></trkpt><trkpt lat="45.734955" lon="8.5256317"><ele>310.0</ele><time>2026-04-05T13:58:21.278Z</time></trkpt><trkpt lat="45.7350117" lon="8.525545"><ele>310.0</ele><time>2026-04-05T13:58:22.28Z</time></trkpt><trkpt lat="45.7350733" lon="8.525465"><ele>310.0</ele><time>2026-04-05T13:58:23.274Z</time></trkpt><trkpt lat="45.7351383" lon="8.5253933"><ele>310.0</ele><time>2026-04-05T13:58:24.275Z</time></trkpt><trkpt lat="45.7352067" lon="8.5253167"><ele>310.0</ele><time>2026-04-05T13:58:25.286Z</time></trkpt><trkpt lat="45.7352733" lon="8.5252383"><ele>309.0</ele><time>2026-04-05T13:58:26.28Z</time></trkpt><trkpt lat="45.7353467" lon="8.5251783"><ele>308.0</ele><time>2026-04-05T13:58:27.274Z</time></trkpt><trkpt lat="45.73542" lon="8.52511"><ele>307.0</ele><time>2026-04-05T13:58:28.279Z</time></trkpt><trkpt lat="45.7355" lon="8.5250517"><ele>306.0</ele><time>2026-04-05T13:58:29.277Z</time></trkpt><trkpt lat="45.73559" lon="8.5250117"><ele>305.0</ele><time>2026-04-05T13:58:30.279Z</time></trkpt><trkpt lat="45.7356817" lon="8.5249717"><ele>305.0</ele><time>2026-04-05T13:58:31.28Z</time></trkpt><trkpt lat="45.7357733" lon="8.52493"><ele>305.0</ele><time>2026-04-05T13:58:32.279Z</time></trkpt><trkpt lat="45.7358667" lon="8.5249067"><ele>305.0</ele><time>2026-04-05T13:58:33.281Z</time></trkpt><trkpt lat="45.73596" lon="8.5248667"><ele>305.0</ele><time>2026-04-05T13:58:34.283Z</time></trkpt><trkpt lat="45.7360533" lon="8.524835"><ele>305.0</ele><time>2026-04-05T13:58:35.274Z</time></trkpt><trkpt lat="45.736145" lon="8.5248"><ele>304.0</ele><time>2026-04-05T13:58:36.282Z</time></trkpt><trkpt lat="45.7362367" lon="8.5247683"><ele>303.0</ele><time>2026-04-05T13:58:37.283Z</time></trkpt><trkpt lat="45.7363267" lon="8.52473"><ele>302.0</ele><time>2026-04-05T13:58:38.282Z</time></trkpt><trkpt lat="45.7364217" lon="8.5247033"><ele>301.0</ele><time>2026-04-05T13:58:39.275Z</time></trkpt><trkpt lat="45.7365167" lon="8.5246617"><ele>300.0</ele><time>2026-04-05T13:58:40.28Z</time></trkpt><trkpt lat="45.7366083" lon="8.52462"><ele>300.0</ele><time>2026-04-05T13:58:41.279Z</time></trkpt><trkpt lat="45.7367" lon="8.5245733"><ele>300.0</ele><time>2026-04-05T13:58:42.282Z</time></trkpt><trkpt lat="45.7367917" lon="8.52454"><ele>300.0</ele><time>2026-04-05T13:58:43.281Z</time></trkpt><trkpt lat="45.736885" lon="8.5245067"><ele>300.0</ele><time>2026-04-05T13:58:44.281Z</time></trkpt><trkpt lat="45.7369767" lon="8.524475"><ele>300.0</ele><time>2026-04-05T13:58:45.279Z</time></trkpt><trkpt lat="45.737065" lon="8.5244367"><ele>299.5</ele><time>2026-04-05T13:58:46.28Z</time></trkpt><trkpt lat="45.7371567" lon="8.5244067"><ele>299.0</ele><time>2026-04-05T13:58:47.28Z</time></trkpt><trkpt lat="45.7372433" lon="8.524375"><ele>298.5</ele><time>2026-04-05T13:58:48.28Z</time></trkpt><trkpt lat="45.7373233" lon="8.524335"><ele>298.0</ele><time>2026-04-05T13:58:49.281Z</time></trkpt><trkpt lat="45.737405" lon="8.524305"><ele>297.5</ele><time>2026-04-05T13:58:50.282Z</time></trkpt><trkpt lat="45.737485" lon="8.5242767"><ele>297.0</ele><time>2026-04-05T13:58:51.28Z</time></trkpt><trkpt lat="45.7375583" lon="8.5242383"><ele>297.0</ele><time>2026-04-05T13:58:52.281Z</time></trkpt><trkpt lat="45.7376333" lon="8.524215"><ele>297.0</ele><time>2026-04-05T13:58:53.283Z</time></trkpt><trkpt lat="45.737705" lon="8.5241883"><ele>297.0</ele><time>2026-04-05T13:58:54.283Z</time></trkpt><trkpt lat="45.737775" lon="8.5241533"><ele>297.0</ele><time>2026-04-05T13:58:55.283Z</time></trkpt><trkpt lat="45.737845" lon="8.52414"><ele>297.0</ele><time>2026-04-05T13:58:56.282Z</time></trkpt><trkpt lat="45.737915" lon="8.5241283"><ele>297.0</ele><time>2026-04-05T13:58:57.279Z</time></trkpt><trkpt lat="45.737985" lon="8.5241517"><ele>297.0</ele><time>2026-04-05T13:58:58.279Z</time></trkpt><trkpt lat="45.73805" lon="8.5241733"><ele>297.3333333333333</ele><time>2026-04-05T13:58:59.278Z</time></trkpt><trkpt lat="45.7381117" lon="8.5242117"><ele>297.6666666666667</ele><time>2026-04-05T13:59:00.278Z</time></trkpt><trkpt lat="45.7381683" lon="8.5242633"><ele>298.0</ele><time>2026-04-05T13:59:01.289Z</time></trkpt><trkpt lat="45.738225" lon="8.524305"><ele>298.33333333333337</ele><time>2026-04-05T13:59:02.282Z</time></trkpt><trkpt lat="45.7383267" lon="8.524395"><ele>298.6666666666667</ele><time>2026-04-05T13:59:04.28Z</time></trkpt><trkpt lat="45.7384133" lon="8.5245"><ele>299.0</ele><time>2026-04-05T13:59:06.281Z</time></trkpt><trkpt lat="45.7384833" lon="8.5246083"><ele>299.0</ele><time>2026-04-05T13:59:08.282Z</time></trkpt><trkpt lat="45.738575" lon="8.5246917"><ele>299.0</ele><time>2026-04-05T13:59:10.281Z</time></trkpt><trkpt lat="45.73866" lon="8.524785"><ele>299.0</ele><time>2026-04-05T13:59:12.28Z</time></trkpt><trkpt lat="45.73874" lon="8.5248783"><ele>299.0</ele><time>2026-04-05T13:59:14.28Z</time></trkpt><trkpt lat="45.7388233" lon="8.5249667"><ele>299.0</ele><time>2026-04-05T13:59:16.28Z</time></trkpt><trkpt lat="45.7389033" lon="8.525055"><ele>299.0</ele><time>2026-04-05T13:59:18.282Z</time></trkpt><trkpt lat="45.738985" lon="8.5251517"><ele>299.0</ele><time>2026-04-05T13:59:20.284Z</time></trkpt><trkpt lat="45.73908" lon="8.5252517"><ele>299.0</ele><time>2026-04-05T13:59:22.282Z</time></trkpt><trkpt lat="45.7391233" lon="8.5253183"><ele>299.0</ele><time>2026-04-05T13:59:23.285Z</time></trkpt><trkpt lat="45.7392233" lon="8.525405"><ele>299.0</ele><time>2026-04-05T13:59:25.282Z</time></trkpt><trkpt lat="45.739335" lon="8.525495"><ele>297.6666666666667</ele><time>2026-04-05T13:59:27.274Z</time></trkpt><trkpt lat="45.73939" lon="8.5255433"><ele>296.33333333333337</ele><time>2026-04-05T13:59:28.279Z</time></trkpt><trkpt lat="45.7394433" lon="8.525605"><ele>295.0</ele><time>2026-04-05T13:59:29.279Z</time></trkpt><trkpt lat="45.739515" lon="8.5256417"><ele>293.6666666666667</ele><time>2026-04-05T13:59:30.278Z</time></trkpt><trkpt lat="45.7395867" lon="8.5256867"><ele>292.3333333333333</ele><time>2026-04-05T13:59:31.278Z</time></trkpt><trkpt lat="45.73967" lon="8.5257083"><ele>291.0</ele><time>2026-04-05T13:59:32.282Z</time></trkpt><trkpt lat="45.7397533" lon="8.5257417"><ele>291.0</ele><time>2026-04-05T13:59:33.278Z</time></trkpt><trkpt lat="45.7398433" lon="8.52574"><ele>291.0</ele><time>2026-04-05T13:59:34.279Z</time></trkpt><trkpt lat="45.7399317" lon="8.5257467"><ele>291.0</ele><time>2026-04-05T13:59:35.279Z</time></trkpt><trkpt lat="45.7400233" lon="8.5257417"><ele>291.0</ele><time>2026-04-05T13:59:36.279Z</time></trkpt><trkpt lat="45.7401167" lon="8.5257367"><ele>291.0</ele><time>2026-04-05T13:59:37.281Z</time></trkpt><trkpt lat="45.74021" lon="8.525725"><ele>290.6666666666667</ele><time>2026-04-05T13:59:38.282Z</time></trkpt><trkpt lat="45.7403" lon="8.5257067"><ele>290.3333333333333</ele><time>2026-04-05T13:59:39.279Z</time></trkpt><trkpt lat="45.7403833" lon="8.5257"><ele>290.0</ele><time>2026-04-05T13:59:40.28Z</time></trkpt><trkpt lat="45.7404667" lon="8.5256683"><ele>289.66666666666663</ele><time>2026-04-05T13:59:41.28Z</time></trkpt><trkpt lat="45.7405567" lon="8.5256767"><ele>289.3333333333333</ele><time>2026-04-05T13:59:42.275Z</time></trkpt><trkpt lat="45.7406417" lon="8.525665"><ele>289.0</ele><time>2026-04-05T13:59:43.281Z</time></trkpt><trkpt lat="45.74073" lon="8.5256717"><ele>289.0</ele><time>2026-04-05T13:59:44.28Z</time></trkpt><trkpt lat="45.7408117" lon="8.5256517"><ele>289.0</ele><time>2026-04-05T13:59:45.279Z</time></trkpt><trkpt lat="45.7408883" lon="8.5256767"><ele>289.0</ele><time>2026-04-05T13:59:46.278Z</time></trkpt><trkpt lat="45.74097" lon="8.525695"><ele>289.0</ele><time>2026-04-05T13:59:47.278Z</time></trkpt><trkpt lat="45.7410517" lon="8.525725"><ele>289.0</ele><time>2026-04-05T13:59:48.28Z</time></trkpt><trkpt lat="45.741125" lon="8.5257233"><ele>289.0</ele><time>2026-04-05T13:59:49.28Z</time></trkpt><trkpt lat="45.7411783" lon="8.5256667"><ele>288.8333333333333</ele><time>2026-04-05T13:59:50.281Z</time></trkpt><trkpt lat="45.7412617" lon="8.5255983"><ele>288.66666666666663</ele><time>2026-04-05T13:59:52.28Z</time></trkpt><trkpt lat="45.741355" lon="8.525585"><ele>288.5</ele><time>2026-04-05T13:59:54.28Z</time></trkpt><trkpt lat="45.74144" lon="8.5255733"><ele>288.3333333333333</ele><time>2026-04-05T13:59:56.281Z</time></trkpt><trkpt lat="45.7415183" lon="8.5255583"><ele>288.1666666666667</ele><time>2026-04-05T13:59:58.272Z</time></trkpt><trkpt lat="45.7416033" lon="8.525525"><ele>288.0</ele><time>2026-04-05T14:00:00.275Z</time></trkpt><trkpt lat="45.7416833" lon="8.5255217"><ele>288.0</ele><time>2026-04-05T14:00:02.275Z</time></trkpt><trkpt lat="45.7417783" lon="8.5254983"><ele>288.0</ele><time>2026-04-05T14:00:04.275Z</time></trkpt><trkpt lat="45.74189" lon="8.52546"><ele>288.0</ele><time>2026-04-05T14:00:06.282Z</time></trkpt><trkpt lat="45.7419967" lon="8.5254117"><ele>288.0</ele><time>2026-04-05T14:00:08.283Z</time></trkpt><trkpt lat="45.742105" lon="8.525375"><ele>288.0</ele><time>2026-04-05T14:00:10.277Z</time></trkpt><trkpt lat="45.742195" lon="8.5253117"><ele>288.6</ele><time>2026-04-05T14:00:12.277Z</time></trkpt><trkpt lat="45.7422783" lon="8.5252517"><ele>289.20000000000005</ele><time>2026-04-05T14:00:14.279Z</time></trkpt><trkpt lat="45.7423783" lon="8.5252083"><ele>289.8</ele><time>2026-04-05T14:00:16.28Z</time></trkpt><trkpt lat="45.742475" lon="8.52516"><ele>290.40000000000003</ele><time>2026-04-05T14:00:18.28Z</time></trkpt><trkpt lat="45.7425667" lon="8.525125"><ele>291.0</ele><time>2026-04-05T14:00:20.278Z</time></trkpt><trkpt lat="45.7426517" lon="8.5250833"><ele>290.8333333333333</ele><time>2026-04-05T14:00:22.28Z</time></trkpt><trkpt lat="45.7427317" lon="8.52504"><ele>290.6666666666667</ele><time>2026-04-05T14:00:24.279Z</time></trkpt><trkpt lat="45.7428167" lon="8.52499"><ele>290.5</ele><time>2026-04-05T14:00:26.281Z</time></trkpt><trkpt lat="45.742905" lon="8.5249583"><ele>290.33333333333337</ele><time>2026-04-05T14:00:28.279Z</time></trkpt><trkpt lat="45.7429783" lon="8.524915"><ele>290.1666666666667</ele><time>2026-04-05T14:00:30.279Z</time></trkpt><trkpt lat="45.7430683" lon="8.524875"><ele>290.0</ele><time>2026-04-05T14:00:32.283Z</time></trkpt><trkpt lat="45.7431567" lon="8.5248467"><ele>290.0</ele><time>2026-04-05T14:00:34.281Z</time></trkpt><trkpt lat="45.7432617" lon="8.5248217"><ele>290.0</ele><time>2026-04-05T14:00:36.284Z</time></trkpt><trkpt lat="45.74335" lon="8.5249033"><ele>290.0</ele><time>2026-04-05T14:00:38.282Z</time></trkpt><trkpt lat="45.7433817" lon="8.5250383"><ele>290.0</ele><time>2026-04-05T14:00:40.279Z</time></trkpt><trkpt lat="45.7433933" lon="8.525165"><ele>290.0</ele><time>2026-04-05T14:00:42.281Z</time></trkpt><trkpt lat="45.7434133" lon="8.5252933"><ele>289.7142857142857</ele><time>2026-04-05T14:00:44.284Z</time></trkpt><trkpt lat="45.74343" lon="8.5254133"><ele>289.42857142857144</ele><time>2026-04-05T14:00:46.281Z</time></trkpt><trkpt lat="45.7434417" lon="8.5255233"><ele>289.14285714285717</ele><time>2026-04-05T14:00:48.287Z</time></trkpt><trkpt lat="45.74347" lon="8.525625"><ele>288.8571428571429</ele><time>2026-04-05T14:00:50.281Z</time></trkpt><trkpt lat="45.7434967" lon="8.5257217"><ele>288.57142857142856</ele><time>2026-04-05T14:00:52.281Z</time></trkpt><trkpt lat="45.7435083" lon="8.5258133"><ele>288.28571428571433</ele><time>2026-04-05T14:00:54.278Z</time></trkpt><trkpt lat="45.74352" lon="8.5259067"><ele>288.0</ele><time>2026-04-05T14:00:56.283Z</time></trkpt><trkpt lat="45.7435333" lon="8.5260183"><ele>288.1666666666667</ele><time>2026-04-05T14:00:58.278Z</time></trkpt><trkpt lat="45.7435483" lon="8.526125"><ele>288.3333333333333</ele><time>2026-04-05T14:01:00.28Z</time></trkpt><trkpt lat="45.7435583" lon="8.52623"><ele>288.5</ele><time>2026-04-05T14:01:02.283Z</time></trkpt><trkpt lat="45.743575" lon="8.5263417"><ele>288.66666666666663</ele><time>2026-04-05T14:01:04.279Z</time></trkpt><trkpt lat="45.7435867" lon="8.52645"><ele>288.8333333333333</ele><time>2026-04-05T14:01:06.28Z</time></trkpt><trkpt lat="45.7435967" lon="8.5265617"><ele>289.0</ele><time>2026-04-05T14:01:08.285Z</time></trkpt><trkpt lat="45.743615" lon="8.52668"><ele>289.0</ele><time>2026-04-05T14:01:10.281Z</time></trkpt><trkpt lat="45.74363" lon="8.5267967"><ele>289.0</ele><time>2026-04-05T14:01:12.281Z</time></trkpt><trkpt lat="45.7436467" lon="8.5269183"><ele>289.0</ele><time>2026-04-05T14:01:14.28Z</time></trkpt><trkpt lat="45.7436617" lon="8.52704"><ele>289.0</ele><time>2026-04-05T14:01:16.276Z</time></trkpt><trkpt lat="45.743675" lon="8.5271567"><ele>289.0</ele><time>2026-04-05T14:01:18.279Z</time></trkpt><trkpt lat="45.7436883" lon="8.5272683"><ele>289.0</ele><time>2026-04-05T14:01:20.284Z</time></trkpt><trkpt lat="45.7437017" lon="8.5273767"><ele>288.8333333333333</ele><time>2026-04-05T14:01:22.282Z</time></trkpt><trkpt lat="45.74371" lon="8.5274767"><ele>288.66666666666663</ele><time>2026-04-05T14:01:24.282Z</time></trkpt><trkpt lat="45.7437183" lon="8.527585"><ele>288.5</ele><time>2026-04-05T14:01:26.284Z</time></trkpt><trkpt lat="45.7437283" lon="8.5276967"><ele>288.3333333333333</ele><time>2026-04-05T14:01:28.283Z</time></trkpt><trkpt lat="45.7437417" lon="8.5278083"><ele>288.1666666666667</ele><time>2026-04-05T14:01:30.282Z</time></trkpt><trkpt lat="45.743755" lon="8.5279217"><ele>288.0</ele><time>2026-04-05T14:01:32.285Z</time></trkpt><trkpt lat="45.74377" lon="8.5280383"><ele>288.6666666666667</ele><time>2026-04-05T14:01:34.281Z</time></trkpt><trkpt lat="45.7437833" lon="8.52815"><ele>289.3333333333333</ele><time>2026-04-05T14:01:36.282Z</time></trkpt><trkpt lat="45.7437867" lon="8.5282717"><ele>290.0</ele><time>2026-04-05T14:01:38.283Z</time></trkpt><trkpt lat="45.7437667" lon="8.5283833"><ele>290.66666666666663</ele><time>2026-04-05T14:01:40.291Z</time></trkpt><trkpt lat="45.7437067" lon="8.5284583"><ele>291.3333333333333</ele><time>2026-04-05T14:01:42.278Z</time></trkpt><trkpt lat="45.7436317" lon="8.5284867"><ele>292.0</ele><time>2026-04-05T14:01:44.28Z</time></trkpt><trkpt lat="45.7435617" lon="8.5285133"><ele>292.0</ele><time>2026-04-05T14:01:46.279Z</time></trkpt><trkpt lat="45.7434883" lon="8.5285467"><ele>292.0</ele><time>2026-04-05T14:01:48.281Z</time></trkpt><trkpt lat="45.7434117" lon="8.52858"><ele>292.0</ele><time>2026-04-05T14:01:50.284Z</time></trkpt><trkpt lat="45.74334" lon="8.5286083"><ele>292.0</ele><time>2026-04-05T14:01:52.279Z</time></trkpt><trkpt lat="45.7432783" lon="8.52865"><ele>292.0</ele><time>2026-04-05T14:01:54.278Z</time></trkpt><trkpt lat="45.74321" lon="8.5286783"><ele>292.0</ele><time>2026-04-05T14:01:56.281Z</time></trkpt><trkpt lat="45.7431383" lon="8.5287183"><ele>292.0</ele><time>2026-04-05T14:01:58.277Z</time></trkpt><trkpt lat="45.7430633" lon="8.5287583"><ele>293.16666666666663</ele><time>2026-04-05T14:02:00.282Z</time></trkpt><trkpt lat="45.7429833" lon="8.5288017"><ele>294.3333333333333</ele><time>2026-04-05T14:02:02.283Z</time></trkpt><trkpt lat="45.7429067" lon="8.5288467"><ele>295.5</ele><time>2026-04-05T14:02:04.281Z</time></trkpt><trkpt lat="45.7428417" lon="8.5289017"><ele>296.6666666666667</ele><time>2026-04-05T14:02:06.282Z</time></trkpt><trkpt lat="45.7427667" lon="8.5289467"><ele>297.83333333333337</ele><time>2026-04-05T14:02:08.285Z</time></trkpt><trkpt lat="45.74269" lon="8.5290017"><ele>299.0</ele><time>2026-04-05T14:02:10.284Z</time></trkpt><trkpt lat="45.7426267" lon="8.5290617"><ele>299.0</ele><time>2026-04-05T14:02:12.277Z</time></trkpt><trkpt lat="45.7425617" lon="8.5291233"><ele>299.0</ele><time>2026-04-05T14:02:14.282Z</time></trkpt><trkpt lat="45.7424983" lon="8.5291833"><ele>299.0</ele><time>2026-04-05T14:02:16.28Z</time></trkpt><trkpt lat="45.74243" lon="8.52924"><ele>299.0</ele><time>2026-04-05T14:02:18.283Z</time></trkpt><trkpt lat="45.7423667" lon="8.5292967"><ele>299.0</ele><time>2026-04-05T14:02:20.283Z</time></trkpt><trkpt lat="45.742295" lon="8.529365"><ele>299.0</ele><time>2026-04-05T14:02:22.281Z</time></trkpt><trkpt lat="45.7422383" lon="8.5294567"><ele>299.0</ele><time>2026-04-05T14:02:24.281Z</time></trkpt><trkpt lat="45.7421883" lon="8.5295383"><ele>299.0</ele><time>2026-04-05T14:02:26.281Z</time></trkpt><trkpt lat="45.74215" lon="8.529615"><ele>299.0</ele><time>2026-04-05T14:02:28.281Z</time></trkpt><trkpt lat="45.7421" lon="8.5297183"><ele>299.0</ele><time>2026-04-05T14:02:31.283Z</time></trkpt><trkpt lat="45.7420733" lon="8.5298167"><ele>299.0</ele><time>2026-04-05T14:02:34.28Z</time></trkpt><trkpt lat="45.74205" lon="8.529915"><ele>299.0</ele><time>2026-04-05T14:02:37.282Z</time></trkpt><trkpt lat="45.742035" lon="8.5300083"><ele>299.0</ele><time>2026-04-05T14:02:40.282Z</time></trkpt><trkpt lat="45.742" lon="8.5301033"><ele>301.0</ele><time>2026-04-05T14:02:43.277Z</time></trkpt><trkpt lat="45.7419633" lon="8.5302217"><ele>303.0</ele><time>2026-04-05T14:02:46.282Z</time></trkpt><trkpt lat="45.7419333" lon="8.5303017"><ele>305.0</ele><time>2026-04-05T14:02:48.281Z</time></trkpt><trkpt lat="45.7418867" lon="8.5303633"><ele>307.0</ele><time>2026-04-05T14:02:50.287Z</time></trkpt><trkpt lat="45.7417883" lon="8.5304283"><ele>309.0</ele><time>2026-04-05T14:03:12.283Z</time></trkpt><trkpt lat="45.7417133" lon="8.530465"><ele>311.0</ele><time>2026-04-05T14:03:16.28Z</time></trkpt><trkpt lat="45.741645" lon="8.5305017"><ele>311.0</ele><time>2026-04-05T14:03:19.281Z</time></trkpt><trkpt lat="45.7415567" lon="8.5305717"><ele>311.0</ele><time>2026-04-05T14:03:22.282Z</time></trkpt><trkpt lat="45.74148" lon="8.53062"><ele>311.0</ele><time>2026-04-05T14:03:24.281Z</time></trkpt><trkpt lat="45.7414167" lon="8.530675"><ele>311.0</ele><time>2026-04-05T14:03:26.283Z</time></trkpt><trkpt lat="45.7413433" lon="8.53071"><ele>311.0</ele><time>2026-04-05T14:03:28.284Z</time></trkpt><trkpt lat="45.7412883" lon="8.5307583"><ele>311.0</ele><time>2026-04-05T14:03:30.283Z</time></trkpt><trkpt lat="45.7412283" lon="8.5307917"><ele>311.0</ele><time>2026-04-05T14:03:32.282Z</time></trkpt><trkpt lat="45.74115" lon="8.530845"><ele>311.0</ele><time>2026-04-05T14:03:35.279Z</time></trkpt><trkpt lat="45.7410867" lon="8.5308833"><ele>311.0</ele><time>2026-04-05T14:03:38.28Z</time></trkpt><trkpt lat="45.74102" lon="8.5309117"><ele>311.0</ele><time>2026-04-05T14:03:40.277Z</time></trkpt><trkpt lat="45.7409483" lon="8.530955"><ele>311.0</ele><time>2026-04-05T14:03:43.282Z</time></trkpt><trkpt lat="45.74086" lon="8.5309917"><ele>311.0</ele><time>2026-04-05T14:03:46.273Z</time></trkpt><trkpt lat="45.7407933" lon="8.5310283"><ele>310.4285714285714</ele><time>2026-04-05T14:03:49.282Z</time></trkpt><trkpt lat="45.740735" lon="8.5310633"><ele>309.8571428571429</ele><time>2026-04-05T14:03:52.279Z</time></trkpt><trkpt lat="45.7406533" lon="8.5311033"><ele>309.2857142857143</ele><time>2026-04-05T14:03:56.28Z</time></trkpt><trkpt lat="45.7405883" lon="8.53112"><ele>308.71428571428567</ele><time>2026-04-05T14:03:58.283Z</time></trkpt><trkpt lat="45.74052" lon="8.5311317"><ele>308.1428571428571</ele><time>2026-04-05T14:04:00.28Z</time></trkpt><trkpt lat="45.7404417" lon="8.5311367"><ele>307.57142857142856</ele><time>2026-04-05T14:04:03.28Z</time></trkpt><trkpt lat="45.7403817" lon="8.5311733"><ele>307.0</ele><time>2026-04-05T14:04:06.28Z</time></trkpt><trkpt lat="45.7402917" lon="8.5312017"><ele>307.2857142857143</ele><time>2026-04-05T14:04:10.283Z</time></trkpt><trkpt lat="45.74023" lon="8.53123"><ele>307.57142857142856</ele><time>2026-04-05T14:04:12.282Z</time></trkpt><trkpt lat="45.740165" lon="8.53124"><ele>307.8571428571429</ele><time>2026-04-05T14:04:14.281Z</time></trkpt><trkpt lat="45.7400683" lon="8.5312667"><ele>308.1428571428571</ele><time>2026-04-05T14:04:17.282Z</time></trkpt><trkpt lat="45.740005" lon="8.531295"><ele>308.42857142857144</ele><time>2026-04-05T14:04:19.28Z</time></trkpt><trkpt lat="45.7399317" lon="8.5313317"><ele>308.7142857142857</ele><time>2026-04-05T14:04:21.276Z</time></trkpt><trkpt lat="45.73987" lon="8.5313767"><ele>309.0</ele><time>2026-04-05T14:04:23.28Z</time></trkpt><trkpt lat="45.7398017" lon="8.5314267"><ele>309.0</ele><time>2026-04-05T14:04:25.28Z</time></trkpt><trkpt lat="45.739735" lon="8.5314817"><ele>309.0</ele><time>2026-04-05T14:04:28.28Z</time></trkpt><trkpt lat="45.73967" lon="8.5315533"><ele>309.0</ele><time>2026-04-05T14:04:31.278Z</time></trkpt><trkpt lat="45.7395867" lon="8.5316183"><ele>309.0</ele><time>2026-04-05T14:04:34.28Z</time></trkpt><trkpt lat="45.7395317" lon="8.5316633"><ele>309.0</ele><time>2026-04-05T14:04:36.28Z</time></trkpt><trkpt lat="45.739475" lon="8.531715"><ele>309.0</ele><time>2026-04-05T14:04:38.281Z</time></trkpt><trkpt lat="45.7394217" lon="8.5317933"><ele>308.8333333333333</ele><time>2026-04-05T14:04:40.274Z</time></trkpt><trkpt lat="45.73934" lon="8.5318517"><ele>308.6666666666667</ele><time>2026-04-05T14:04:43.279Z</time></trkpt><trkpt lat="45.7392683" lon="8.5318867"><ele>308.5</ele><time>2026-04-05T14:04:46.282Z</time></trkpt><trkpt lat="45.73921" lon="8.5319233"><ele>308.33333333333337</ele><time>2026-04-05T14:04:49.279Z</time></trkpt><trkpt lat="45.7391467" lon="8.5319733"><ele>308.1666666666667</ele><time>2026-04-05T14:04:52.28Z</time></trkpt><trkpt lat="45.73908" lon="8.53204"><ele>308.0</ele><time>2026-04-05T14:04:55.283Z</time></trkpt><trkpt lat="45.7390183" lon="8.5320883"><ele>308.6666666666667</ele><time>2026-04-05T14:04:58.279Z</time></trkpt><trkpt lat="45.7389383" lon="8.5321517"><ele>309.33333333333337</ele><time>2026-04-05T14:05:01.282Z</time></trkpt><trkpt lat="45.7388733" lon="8.532205"><ele>310.0</ele><time>2026-04-05T14:05:03.279Z</time></trkpt><trkpt lat="45.738815" lon="8.53226"><ele>310.6666666666667</ele><time>2026-04-05T14:05:05.28Z</time></trkpt><trkpt lat="45.7387617" lon="8.53231"><ele>311.3333333333333</ele><time>2026-04-05T14:05:07.279Z</time></trkpt><trkpt lat="45.7386883" lon="8.5323717"><ele>312.0</ele><time>2026-04-05T14:05:10.281Z</time></trkpt><trkpt lat="45.738625" lon="8.5324167"><ele>311.8333333333333</ele><time>2026-04-05T14:05:13.277Z</time></trkpt><trkpt lat="45.73855" lon="8.5324717"><ele>311.6666666666667</ele><time>2026-04-05T14:05:16.28Z</time></trkpt><trkpt lat="45.73848" lon="8.5325317"><ele>311.5</ele><time>2026-04-05T14:05:19.28Z</time></trkpt><trkpt lat="45.7384117" lon="8.5325867"><ele>311.33333333333337</ele><time>2026-04-05T14:05:21.284Z</time></trkpt><trkpt lat="45.7383483" lon="8.5326367"><ele>311.1666666666667</ele><time>2026-04-05T14:05:23.281Z</time></trkpt><trkpt lat="45.73828" lon="8.5327"><ele>311.0</ele><time>2026-04-05T14:05:25.282Z</time></trkpt><trkpt lat="45.7381967" lon="8.5327633"><ele>311.0</ele><time>2026-04-05T14:05:27.277Z</time></trkpt><trkpt lat="45.73813" lon="8.5328067"><ele>311.0</ele><time>2026-04-05T14:05:29.279Z</time></trkpt><trkpt lat="45.738075" lon="8.5328533"><ele>311.0</ele><time>2026-04-05T14:05:31.28Z</time></trkpt><trkpt lat="45.7380033" lon="8.5329233"><ele>311.0</ele><time>2026-04-05T14:05:34.277Z</time></trkpt><trkpt lat="45.737924" lon="8.5329788"><ele>311.0</ele><time>2026-04-05T14:05:37.418Z</time></trkpt><trkpt lat="45.737857" lon="8.5330274"><ele>311.0</ele><time>2026-04-05T14:05:39.332Z</time></trkpt><trkpt lat="45.7377845" lon="8.5330666"><ele>311.1666666666667</ele><time>2026-04-05T14:05:41.235Z</time></trkpt><trkpt lat="45.7377017" lon="8.53313"><ele>311.33333333333337</ele><time>2026-04-05T14:05:44.275Z</time></trkpt><trkpt lat="45.73763" lon="8.5331867"><ele>311.5</ele><time>2026-04-05T14:05:47.282Z</time></trkpt><trkpt lat="45.73756" lon="8.533255"><ele>311.6666666666667</ele><time>2026-04-05T14:05:50.281Z</time></trkpt><trkpt lat="45.7374917" lon="8.5333233"><ele>311.8333333333333</ele><time>2026-04-05T14:05:53.282Z</time></trkpt><trkpt lat="45.7374317" lon="8.533355"><ele>312.0</ele><time>2026-04-05T14:05:55.28Z</time></trkpt><trkpt lat="45.7373783" lon="8.533425"><ele>312.0</ele><time>2026-04-05T14:05:59.28Z</time></trkpt><trkpt lat="45.7373167" lon="8.53347"><ele>312.0</ele><time>2026-04-05T14:06:02.281Z</time></trkpt><trkpt lat="45.7372533" lon="8.533525"><ele>312.0</ele><time>2026-04-05T14:06:05.281Z</time></trkpt><trkpt lat="45.7371933" lon="8.5335817"><ele>312.0</ele><time>2026-04-05T14:06:08.278Z</time></trkpt><trkpt lat="45.737125" lon="8.53363"><ele>312.0</ele><time>2026-04-05T14:06:11.277Z</time></trkpt><trkpt lat="45.7370667" lon="8.5336817"><ele>312.0</ele><time>2026-04-05T14:06:14.28Z</time></trkpt><trkpt lat="45.7370083" lon="8.5337283"><ele>312.0</ele><time>2026-04-05T14:06:17.279Z</time></trkpt><trkpt lat="45.7369517" lon="8.5338033"><ele>312.14285714285717</ele><time>2026-04-05T14:06:21.281Z</time></trkpt><trkpt lat="45.7369183" lon="8.5339183"><ele>312.2857142857143</ele><time>2026-04-05T14:06:25.279Z</time></trkpt><trkpt lat="45.7368883" lon="8.53383"><ele>312.42857142857144</ele><time>2026-04-05T14:06:43.278Z</time></trkpt><trkpt lat="45.7368417" lon="8.5339133"><ele>312.57142857142856</ele><time>2026-04-05T14:07:02.287Z</time></trkpt><trkpt lat="45.7368317" lon="8.5340033"><ele>312.7142857142857</ele><time>2026-04-05T14:07:05.28Z</time></trkpt><trkpt lat="45.7367883" lon="8.5341033"><ele>312.85714285714283</ele><time>2026-04-05T14:07:09.28Z</time></trkpt><trkpt lat="45.7367517" lon="8.534185"><ele>313.0</ele><time>2026-04-05T14:07:12.279Z</time></trkpt><trkpt lat="45.7367083" lon="8.5342667"><ele>313.0</ele><time>2026-04-05T14:07:14.281Z</time></trkpt><trkpt lat="45.7366583" lon="8.5343683"><ele>313.0</ele><time>2026-04-05T14:07:16.277Z</time></trkpt><trkpt lat="45.736625" lon="8.53448"><ele>313.0</ele><time>2026-04-05T14:07:18.28Z</time></trkpt><trkpt lat="45.7365933" lon="8.534565"><ele>313.0</ele><time>2026-04-05T14:07:20.278Z</time></trkpt><trkpt lat="45.7365517" lon="8.534655"><ele>313.0</ele><time>2026-04-05T14:07:23.28Z</time></trkpt><trkpt lat="45.736535" lon="8.53478"><ele>313.0</ele><time>2026-04-05T14:07:26.28Z</time></trkpt><trkpt lat="45.7365117" lon="8.5349083"><ele>313.7142857142857</ele><time>2026-04-05T14:07:29.28Z</time></trkpt><trkpt lat="45.736505" lon="8.5350267"><ele>314.42857142857144</ele><time>2026-04-05T14:07:32.279Z</time></trkpt><trkpt lat="45.7364983" lon="8.5351483"><ele>315.1428571428571</ele><time>2026-04-05T14:07:35.281Z</time></trkpt><trkpt lat="45.7364683" lon="8.535245"><ele>315.8571428571429</ele><time>2026-04-05T14:07:38.281Z</time></trkpt><trkpt lat="45.73643" lon="8.5353183"><ele>316.5714285714286</ele><time>2026-04-05T14:07:41.282Z</time></trkpt><trkpt lat="45.7363967" lon="8.535405"><ele>317.2857142857143</ele><time>2026-04-05T14:07:45.282Z</time></trkpt><trkpt lat="45.736355" lon="8.53548"><ele>318.0</ele><time>2026-04-05T14:07:49.279Z</time></trkpt><trkpt lat="45.73631" lon="8.53558"><ele>318.0</ele><time>2026-04-05T14:07:52.275Z</time></trkpt><trkpt lat="45.73627" lon="8.5356617"><ele>318.0</ele><time>2026-04-05T14:07:55.28Z</time></trkpt><trkpt lat="45.736235" lon="8.5357517"><ele>318.0</ele><time>2026-04-05T14:07:59.28Z</time></trkpt><trkpt lat="45.7361433" lon="8.5359017"><ele>318.0</ele><time>2026-04-05T14:08:20.281Z</time></trkpt><trkpt lat="45.73609" lon="8.535955"><ele>318.0</ele><time>2026-04-05T14:08:23.283Z</time></trkpt><trkpt lat="45.736025" lon="8.536045"><ele>318.0</ele><time>2026-04-05T14:08:27.279Z</time></trkpt><trkpt lat="45.7359567" lon="8.536095"><ele>318.0</ele><time>2026-04-05T14:08:29.279Z</time></trkpt><trkpt lat="45.7358733" lon="8.5361867"><ele>318.0</ele><time>2026-04-05T14:08:31.28Z</time></trkpt><trkpt lat="45.7358067" lon="8.536265"><ele>318.0</ele><time>2026-04-05T14:08:33.276Z</time></trkpt><trkpt lat="45.735755" lon="8.5363183"><ele>318.0</ele><time>2026-04-05T14:08:35.28Z</time></trkpt><trkpt lat="45.7357" lon="8.5363883"><ele>318.0</ele><time>2026-04-05T14:08:38.286Z</time></trkpt><trkpt lat="45.73565" lon="8.53646"><ele>318.0</ele><time>2026-04-05T14:08:41.273Z</time></trkpt><trkpt lat="45.735615" lon="8.536535"><ele>318.8</ele><time>2026-04-05T14:08:44.277Z</time></trkpt><trkpt lat="45.7355467" lon="8.5366267"><ele>319.6</ele><time>2026-04-05T14:08:46.273Z</time></trkpt><trkpt lat="45.7354567" lon="8.5367133"><ele>320.40000000000003</ele><time>2026-04-05T14:08:48.275Z</time></trkpt><trkpt lat="45.735385" lon="8.536785"><ele>321.20000000000005</ele><time>2026-04-05T14:08:50.274Z</time></trkpt><trkpt lat="45.7353083" lon="8.5368667"><ele>322.0</ele><time>2026-04-05T14:08:52.278Z</time></trkpt><trkpt lat="45.735245" lon="8.536925"><ele>321.5</ele><time>2026-04-05T14:08:54.283Z</time></trkpt><trkpt lat="45.735065" lon="8.53712"><ele>321.0</ele><time>2026-04-05T14:10:07.28Z</time></trkpt><trkpt lat="45.7340133" lon="8.5396633"><ele>321.8333333333333</ele><time>2026-04-05T14:14:08.273Z</time></trkpt><trkpt lat="45.7339483" lon="8.5396683"><ele>322.6666666666667</ele><time>2026-04-05T14:26:01.28Z</time></trkpt><trkpt lat="45.7340367" lon="8.53962"><ele>323.5</ele><time>2026-04-05T14:26:34.273Z</time></trkpt><trkpt lat="45.7339933" lon="8.539755"><ele>324.33333333333337</ele><time>2026-04-05T14:26:58.278Z</time></trkpt><trkpt lat="45.7339483" lon="8.5398267"><ele>325.1666666666667</ele><time>2026-04-05T14:27:36.272Z</time></trkpt><trkpt lat="45.7339117" lon="8.53991"><ele>326.0</ele><time>2026-04-05T14:27:40.272Z</time></trkpt><trkpt lat="45.7339217" lon="8.54002"><ele>326.0</ele><time>2026-04-05T14:27:47.279Z</time></trkpt><trkpt lat="45.73394" lon="8.540155"><ele>326.0</ele><time>2026-04-05T14:28:04.278Z</time></trkpt><trkpt lat="45.7339217" lon="8.5402517"><ele>326.0</ele><time>2026-04-05T14:28:12.278Z</time></trkpt><trkpt lat="45.733915" lon="8.5403467"><ele>326.0</ele><time>2026-04-05T14:28:18.281Z</time></trkpt><trkpt lat="45.7339017" lon="8.5404367"><ele>326.0</ele><time>2026-04-05T14:28:25.284Z</time></trkpt><trkpt lat="45.7339067" lon="8.5405267"><ele>326.0</ele><time>2026-04-05T14:28:32.281Z</time></trkpt><trkpt lat="45.7338917" lon="8.5406167"><ele>326.0</ele><time>2026-04-05T14:28:39.279Z</time></trkpt><trkpt lat="45.73388" lon="8.5407183"><ele>325.7142857142857</ele><time>2026-04-05T14:28:46.278Z</time></trkpt><trkpt lat="45.7338583" lon="8.5408083"><ele>325.4285714285714</ele><time>2026-04-05T14:28:53.279Z</time></trkpt><trkpt lat="45.7338433" lon="8.5409"><ele>325.1428571428571</ele><time>2026-04-05T14:28:56.281Z</time></trkpt><trkpt lat="45.73381" lon="8.54099"><ele>324.8571428571429</ele><time>2026-04-05T14:29:01.281Z</time></trkpt><trkpt lat="45.7338083" lon="8.5408867"><ele>324.57142857142856</ele><time>2026-04-05T14:29:46.279Z</time></trkpt><trkpt lat="45.7337733" lon="8.5408067"><ele>324.2857142857143</ele><time>2026-04-05T14:29:51.283Z</time></trkpt><trkpt lat="45.7337433" lon="8.540715"><ele>324.0</ele><time>2026-04-05T14:29:57.278Z</time></trkpt><trkpt lat="45.7337183" lon="8.5406167"><ele>324.0</ele><time>2026-04-05T14:30:03.276Z</time></trkpt><trkpt lat="45.733685" lon="8.54054"><ele>324.0</ele><time>2026-04-05T14:30:09.28Z</time></trkpt><trkpt lat="45.733645" lon="8.5404633"><ele>324.0</ele><time>2026-04-05T14:30:16.279Z</time></trkpt><trkpt lat="45.7335833" lon="8.54042"><ele>324.0</ele><time>2026-04-05T14:30:24.279Z</time></trkpt><trkpt lat="45.733535" lon="8.5403533"><ele>324.0</ele><time>2026-04-05T14:30:31.279Z</time></trkpt><trkpt lat="45.733495" lon="8.5402833"><ele>324.0</ele><time>2026-04-05T14:30:36.28Z</time></trkpt><trkpt lat="45.733445" lon="8.540215"><ele>324.0</ele><time>2026-04-05T14:30:42.286Z</time></trkpt><trkpt lat="45.7333833" lon="8.5401617"><ele>322.7142857142857</ele><time>2026-04-05T14:30:48.277Z</time></trkpt><trkpt lat="45.7333267" lon="8.5401117"><ele>321.42857142857144</ele><time>2026-04-05T14:30:53.28Z</time></trkpt><trkpt lat="45.7332683" lon="8.5400733"><ele>320.1428571428571</ele><time>2026-04-05T14:30:58.281Z</time></trkpt><trkpt lat="45.7332033" lon="8.5400933"><ele>318.8571428571429</ele><time>2026-04-05T14:31:04.281Z</time></trkpt><trkpt lat="45.7331333" lon="8.5401267"><ele>317.57142857142856</ele><time>2026-04-05T14:31:13.28Z</time></trkpt><trkpt lat="45.7330783" lon="8.5401783"><ele>316.2857142857143</ele><time>2026-04-05T14:31:16.282Z</time></trkpt><trkpt lat="45.733035" lon="8.5402733"><ele>315.0</ele><time>2026-04-05T14:31:20.281Z</time></trkpt><trkpt lat="45.733005" lon="8.5403717"><ele>315.1666666666667</ele><time>2026-04-05T14:31:23.282Z</time></trkpt><trkpt lat="45.73298" lon="8.5404983"><ele>315.3333333333333</ele><time>2026-04-05T14:31:26.274Z</time></trkpt><trkpt lat="45.732945" lon="8.5406"><ele>315.5</ele><time>2026-04-05T14:31:28.273Z</time></trkpt><trkpt lat="45.732905" lon="8.5407117"><ele>315.66666666666663</ele><time>2026-04-05T14:31:30.281Z</time></trkpt><trkpt lat="45.7328533" lon="8.5407767"><ele>315.8333333333333</ele><time>2026-04-05T14:31:32.282Z</time></trkpt><trkpt lat="45.7328033" lon="8.5408383"><ele>316.0</ele><time>2026-04-05T14:31:34.277Z</time></trkpt><trkpt lat="45.7327567" lon="8.5409"><ele>313.8333333333333</ele><time>2026-04-05T14:31:36.273Z</time></trkpt><trkpt lat="45.7326733" lon="8.5409617"><ele>311.66666666666663</ele><time>2026-04-05T14:31:39.277Z</time></trkpt><trkpt lat="45.7326083" lon="8.54101"><ele>309.5</ele><time>2026-04-05T14:31:41.282Z</time></trkpt><trkpt lat="45.7325467" lon="8.541085"><ele>307.3333333333333</ele><time>2026-04-05T14:31:43.277Z</time></trkpt><trkpt lat="45.7324967" lon="8.5411433"><ele>305.1666666666667</ele><time>2026-04-05T14:31:45.275Z</time></trkpt><trkpt lat="45.732425" lon="8.541185"><ele>303.0</ele><time>2026-04-05T14:31:47.281Z</time></trkpt><trkpt lat="45.73235" lon="8.5411967"><ele>303.0</ele><time>2026-04-05T14:31:49.281Z</time></trkpt><trkpt lat="45.7322767" lon="8.5411867"><ele>303.0</ele><time>2026-04-05T14:31:52.28Z</time></trkpt><trkpt lat="45.7323083" lon="8.541285"><ele>303.0</ele><time>2026-04-05T14:32:05.279Z</time></trkpt><trkpt lat="45.7323933" lon="8.5413017"><ele>303.0</ele><time>2026-04-05T14:32:08.283Z</time></trkpt><trkpt lat="45.7324717" lon="8.54125"><ele>303.0</ele><time>2026-04-05T14:32:11.278Z</time></trkpt><trkpt lat="45.73254" lon="8.5411733"><ele>303.0</ele><time>2026-04-05T14:32:14.283Z</time></trkpt><trkpt lat="45.7326133" lon="8.5411033"><ele>303.0</ele><time>2026-04-05T14:32:17.28Z</time></trkpt><trkpt lat="45.7326767" lon="8.5410483"><ele>303.0</ele><time>2026-04-05T14:32:20.277Z</time></trkpt><trkpt lat="45.7327317" lon="8.5409967"><ele>303.0</ele><time>2026-04-05T14:32:24.278Z</time></trkpt><trkpt lat="45.7327717" lon="8.5409217"><ele>303.0</ele><time>2026-04-05T14:32:41.275Z</time></trkpt><trkpt lat="45.732845" lon="8.54092"><ele>303.0</ele><time>2026-04-05T14:32:46.277Z</time></trkpt><trkpt lat="45.732785" lon="8.5408783"><ele>303.0</ele><time>2026-04-05T14:32:59.28Z</time></trkpt><trkpt lat="45.73272" lon="8.5409017"><ele>303.0</ele><time>2026-04-05T14:33:01.28Z</time></trkpt><trkpt lat="45.73264" lon="8.5409283"><ele>303.0</ele><time>2026-04-05T14:33:03.28Z</time></trkpt><trkpt lat="45.7325583" lon="8.54098"><ele>303.0</ele><time>2026-04-05T14:33:05.278Z</time></trkpt><trkpt lat="45.7324933" lon="8.5410333"><ele>303.0</ele><time>2026-04-05T14:33:07.279Z</time></trkpt><trkpt lat="45.732435" lon="8.5410783"><ele>303.0</ele><time>2026-04-05T14:33:10.278Z</time></trkpt><trkpt lat="45.732365" lon="8.5411217"><ele>303.0</ele><time>2026-04-05T14:33:12.282Z</time></trkpt><trkpt lat="45.7322733" lon="8.5411267"><ele>303.0</ele><time>2026-04-05T14:33:14.274Z</time></trkpt><trkpt lat="45.7321483" lon="8.5411467"><ele>303.0</ele><time>2026-04-05T14:33:16.281Z</time></trkpt><trkpt lat="45.7320333" lon="8.5411717"><ele>303.0</ele><time>2026-04-05T14:33:18.278Z</time></trkpt><trkpt lat="45.7319167" lon="8.5412183"><ele>303.0</ele><time>2026-04-05T14:33:20.279Z</time></trkpt><trkpt lat="45.7318567" lon="8.5412483"><ele>303.0</ele><time>2026-04-05T14:33:21.286Z</time></trkpt><trkpt lat="45.73174" lon="8.5412983"><ele>303.0</ele><time>2026-04-05T14:33:23.274Z</time></trkpt><trkpt lat="45.7316783" lon="8.54133"><ele>302.14285714285717</ele><time>2026-04-05T14:33:24.279Z</time></trkpt><trkpt lat="45.7316167" lon="8.5413667"><ele>301.2857142857143</ele><time>2026-04-05T14:33:25.28Z</time></trkpt><trkpt lat="45.7315583" lon="8.5414083"><ele>300.42857142857144</ele><time>2026-04-05T14:33:26.281Z</time></trkpt><trkpt lat="45.7315017" lon="8.5414633"><ele>299.57142857142856</ele><time>2026-04-05T14:33:27.28Z</time></trkpt><trkpt lat="45.73145" lon="8.541525"><ele>298.7142857142857</ele><time>2026-04-05T14:33:28.281Z</time></trkpt><trkpt lat="45.731395" lon="8.5415883"><ele>297.8571428571429</ele><time>2026-04-05T14:33:29.28Z</time></trkpt><trkpt lat="45.73134" lon="8.54165"><ele>297.0</ele><time>2026-04-05T14:33:30.28Z</time></trkpt><trkpt lat="45.7312833" lon="8.5417083"><ele>297.0</ele><time>2026-04-05T14:33:31.279Z</time></trkpt><trkpt lat="45.731225" lon="8.5417717"><ele>297.0</ele><time>2026-04-05T14:33:32.279Z</time></trkpt><trkpt lat="45.7311583" lon="8.5418617"><ele>297.0</ele><time>2026-04-05T14:33:33.28Z</time></trkpt><trkpt lat="45.7310967" lon="8.5419283"><ele>297.0</ele><time>2026-04-05T14:33:34.282Z</time></trkpt><trkpt lat="45.7310367" lon="8.541995"><ele>297.0</ele><time>2026-04-05T14:33:35.278Z</time></trkpt><trkpt lat="45.7309817" lon="8.5420533"><ele>297.0</ele><time>2026-04-05T14:33:36.274Z</time></trkpt><trkpt lat="45.7309333" lon="8.5421133"><ele>295.8</ele><time>2026-04-05T14:33:37.278Z</time></trkpt><trkpt lat="45.7308883" lon="8.54218"><ele>294.6</ele><time>2026-04-05T14:33:38.283Z</time></trkpt><trkpt lat="45.7308067" lon="8.542295"><ele>293.40000000000003</ele><time>2026-04-05T14:33:40.276Z</time></trkpt><trkpt lat="45.7307283" lon="8.5423967"><ele>292.2</ele><time>2026-04-05T14:33:42.281Z</time></trkpt><trkpt lat="45.7306617" lon="8.5424833"><ele>291.0</ele><time>2026-04-05T14:33:44.283Z</time></trkpt><trkpt lat="45.7305967" lon="8.5425367"><ele>291.0</ele><time>2026-04-05T14:33:46.28Z</time></trkpt><trkpt lat="45.730665" lon="8.5424917"><ele>291.0</ele><time>2026-04-05T14:33:55.28Z</time></trkpt><trkpt lat="45.7307383" lon="8.54242"><ele>291.0</ele><time>2026-04-05T14:33:57.278Z</time></trkpt><trkpt lat="45.7308083" lon="8.542345"><ele>291.0</ele><time>2026-04-05T14:33:59.278Z</time></trkpt><trkpt lat="45.730865" lon="8.5422717"><ele>291.0</ele><time>2026-04-05T14:34:01.277Z</time></trkpt><trkpt lat="45.730925" lon="8.5422033"><ele>291.0</ele><time>2026-04-05T14:34:04.278Z</time></trkpt><trkpt lat="45.730995" lon="8.542145"><ele>291.0</ele><time>2026-04-05T14:34:07.279Z</time></trkpt><trkpt lat="45.7310483" lon="8.5420867"><ele>291.0</ele><time>2026-04-05T14:34:10.278Z</time></trkpt><trkpt lat="45.7311117" lon="8.542045"><ele>291.0</ele><time>2026-04-05T14:34:15.282Z</time></trkpt><trkpt lat="45.73116" lon="8.5419717"><ele>291.0</ele><time>2026-04-05T14:34:19.287Z</time></trkpt><trkpt lat="45.7312183" lon="8.541935"><ele>291.0</ele><time>2026-04-05T14:34:22.28Z</time></trkpt><trkpt lat="45.73127" lon="8.5418833"><ele>291.0</ele><time>2026-04-05T14:34:25.281Z</time></trkpt><trkpt lat="45.73134" lon="8.5418183"><ele>291.0</ele><time>2026-04-05T14:34:28.278Z</time></trkpt><trkpt lat="45.7314" lon="8.5417633"><ele>291.85714285714283</ele><time>2026-04-05T14:34:31.281Z</time></trkpt><trkpt lat="45.7314483" lon="8.54168"><ele>292.71428571428567</ele><time>2026-04-05T14:34:34.28Z</time></trkpt><trkpt lat="45.7314833" lon="8.5415917"><ele>293.57142857142856</ele><time>2026-04-05T14:34:38.279Z</time></trkpt><trkpt lat="45.7314117" lon="8.5416117"><ele>294.42857142857144</ele><time>2026-04-05T14:34:49.281Z</time></trkpt><trkpt lat="45.7313617" lon="8.541695"><ele>295.28571428571433</ele><time>2026-04-05T14:34:52.279Z</time></trkpt><trkpt lat="45.731305" lon="8.5417433"><ele>296.14285714285717</ele><time>2026-04-05T14:34:57.279Z</time></trkpt><trkpt lat="45.7312517" lon="8.5417967"><ele>297.0</ele><time>2026-04-05T14:35:03.281Z</time></trkpt><trkpt lat="45.731185" lon="8.541835"><ele>297.0</ele><time>2026-04-05T14:35:09.28Z</time></trkpt><trkpt lat="45.7311383" lon="8.5419267"><ele>297.0</ele><time>2026-04-05T14:35:16.277Z</time></trkpt><trkpt lat="45.7310633" lon="8.5419567"><ele>297.0</ele><time>2026-04-05T14:35:21.281Z</time></trkpt><trkpt lat="45.7310067" lon="8.5420067"><ele>297.0</ele><time>2026-04-05T14:35:26.282Z</time></trkpt><trkpt lat="45.7309567" lon="8.54211"><ele>297.0</ele><time>2026-04-05T14:35:33.277Z</time></trkpt><trkpt lat="45.7309033" lon="8.5421733"><ele>297.0</ele><time>2026-04-05T14:35:39.28Z</time></trkpt><trkpt lat="45.73086" lon="8.54226"><ele>296.0</ele><time>2026-04-05T14:35:45.279Z</time></trkpt><trkpt lat="45.7308017" lon="8.5423183"><ele>295.0</ele><time>2026-04-05T14:35:51.281Z</time></trkpt><trkpt lat="45.7307517" lon="8.54238"><ele>294.0</ele><time>2026-04-05T14:35:56.282Z</time></trkpt><trkpt lat="45.7306967" lon="8.5424333"><ele>293.0</ele><time>2026-04-05T14:36:01.28Z</time></trkpt><trkpt lat="45.730635" lon="8.54248"><ele>292.0</ele><time>2026-04-05T14:36:07.28Z</time></trkpt><trkpt lat="45.73059" lon="8.54255"><ele>291.0</ele><time>2026-04-05T14:36:13.284Z</time></trkpt><trkpt lat="45.730495" lon="8.5426583"><ele>291.0</ele><time>2026-04-05T14:36:25.282Z</time></trkpt><trkpt lat="45.7303583" lon="8.5427933"><ele>291.0</ele><time>2026-04-05T14:36:42.278Z</time></trkpt><trkpt lat="45.7302983" lon="8.5428583"><ele>291.0</ele><time>2026-04-05T14:36:49.284Z</time></trkpt><trkpt lat="45.7302233" lon="8.5429183"><ele>291.0</ele><time>2026-04-05T14:36:56.283Z</time></trkpt><trkpt lat="45.7301683" lon="8.5429867"><ele>291.0</ele><time>2026-04-05T14:37:02.281Z</time></trkpt><trkpt lat="45.7301033" lon="8.54309"><ele>290.6</ele><time>2026-04-05T14:37:12.282Z</time></trkpt><trkpt lat="45.7300617" lon="8.543175"><ele>290.20000000000005</ele><time>2026-04-05T14:37:19.28Z</time></trkpt><trkpt lat="45.73002" lon="8.5433083"><ele>289.79999999999995</ele><time>2026-04-05T14:38:55.28Z</time></trkpt><trkpt lat="45.72988" lon="8.5433917"><ele>289.4</ele><time>2026-04-05T14:39:08.279Z</time></trkpt><trkpt lat="45.729825" lon="8.543445"><ele>289.0</ele><time>2026-04-05T14:39:16.278Z</time></trkpt><trkpt lat="45.7297317" lon="8.5434183"><ele>289.0</ele><time>2026-04-05T14:39:33.279Z</time></trkpt><trkpt lat="45.7296917" lon="8.543495"><ele>289.0</ele><time>2026-04-05T14:39:41.278Z</time></trkpt><trkpt lat="45.7296483" lon="8.5435667"><ele>289.0</ele><time>2026-04-05T14:39:48.279Z</time></trkpt><trkpt lat="45.72955" lon="8.543645"><ele>289.0</ele><time>2026-04-05T14:40:01.28Z</time></trkpt><trkpt lat="45.72946" lon="8.5437667"><ele>289.0</ele><time>2026-04-05T14:40:15.279Z</time></trkpt><trkpt lat="45.7293733" lon="8.5438917"><ele>288.3333333333333</ele><time>2026-04-05T14:40:27.283Z</time></trkpt><trkpt lat="45.7293217" lon="8.54399"><ele>287.66666666666663</ele><time>2026-04-05T14:40:36.28Z</time></trkpt><trkpt lat="45.7292717" lon="8.5440967"><ele>287.0</ele><time>2026-04-05T14:40:45.28Z</time></trkpt><trkpt lat="45.7292267" lon="8.544165"><ele>286.3333333333333</ele><time>2026-04-05T14:40:53.272Z</time></trkpt><trkpt lat="45.7291667" lon="8.5442367"><ele>285.6666666666667</ele><time>2026-04-05T14:41:01.28Z</time></trkpt><trkpt lat="45.7291267" lon="8.5443067"><ele>285.0</ele><time>2026-04-05T14:41:08.279Z</time></trkpt><trkpt lat="45.729075" lon="8.544375"><ele>285.0</ele><time>2026-04-05T14:41:15.281Z</time></trkpt><trkpt lat="45.72903" lon="8.544445"><ele>285.0</ele><time>2026-04-05T14:41:22.278Z</time></trkpt><trkpt lat="45.7289667" lon="8.544525"><ele>285.0</ele><time>2026-04-05T14:41:32.282Z</time></trkpt><trkpt lat="45.7288733" lon="8.544625"><ele>285.0</ele><time>2026-04-05T14:41:46.282Z</time></trkpt><trkpt lat="45.7288233" lon="8.5446883"><ele>285.0</ele><time>2026-04-05T14:41:54.283Z</time></trkpt><trkpt lat="45.7287617" lon="8.54474"><ele>285.0</ele><time>2026-04-05T14:42:02.282Z</time></trkpt><trkpt lat="45.7286333" lon="8.5448067"><ele>284.5</ele><time>2026-04-05T14:42:16.279Z</time></trkpt><trkpt lat="45.7285167" lon="8.5449383"><ele>284.0</ele><time>2026-04-05T14:42:30.287Z</time></trkpt><trkpt lat="45.7284033" lon="8.54503"><ele>283.5</ele><time>2026-04-05T14:42:44.281Z</time></trkpt><trkpt lat="45.7283267" lon="8.5451333"><ele>283.0</ele><time>2026-04-05T14:42:56.282Z</time></trkpt><trkpt lat="45.72827" lon="8.545235"><ele>283.0</ele><time>2026-04-05T14:43:05.28Z</time></trkpt><trkpt lat="45.7281683" lon="8.5453467"><ele>283.0</ele><time>2026-04-05T14:43:18.279Z</time></trkpt><trkpt lat="45.7281167" lon="8.5454017"><ele>283.0</ele><time>2026-04-05T14:43:25.279Z</time></trkpt><trkpt lat="45.7280383" lon="8.5454317"><ele>283.0</ele><time>2026-04-05T14:43:36.278Z</time></trkpt><trkpt lat="45.7279817" lon="8.5452383"><ele>283.0</ele><time>2026-04-05T14:43:55.275Z</time></trkpt><trkpt lat="45.7279533" lon="8.5451233"><ele>283.0</ele><time>2026-04-05T14:44:03.277Z</time></trkpt><trkpt lat="45.7279517" lon="8.54503"><ele>283.0</ele><time>2026-04-05T14:44:09.278Z</time></trkpt><trkpt lat="45.7279183" lon="8.5449233"><ele>283.0</ele><time>2026-04-05T14:44:14.276Z</time></trkpt><trkpt lat="45.7278867" lon="8.5448283"><ele>283.0</ele><time>2026-04-05T14:44:17.279Z</time></trkpt><trkpt lat="45.7278667" lon="8.54472"><ele>283.0</ele><time>2026-04-05T14:44:20.281Z</time></trkpt><trkpt lat="45.7278383" lon="8.5446017"><ele>283.0</ele><time>2026-04-05T14:44:23.277Z</time></trkpt><trkpt lat="45.7278183" lon="8.544515"><ele>283.0</ele><time>2026-04-05T14:44:25.28Z</time></trkpt><trkpt lat="45.7278" lon="8.5444267"><ele>281.8333333333333</ele><time>2026-04-05T14:44:27.279Z</time></trkpt><trkpt lat="45.7277783" lon="8.54433"><ele>280.66666666666663</ele><time>2026-04-05T14:44:29.281Z</time></trkpt><trkpt lat="45.7277533" lon="8.544235"><ele>279.5</ele><time>2026-04-05T14:44:31.273Z</time></trkpt><trkpt lat="45.72773" lon="8.54413"><ele>278.3333333333333</ele><time>2026-04-05T14:44:33.279Z</time></trkpt><trkpt lat="45.7277067" lon="8.544015"><ele>277.1666666666667</ele><time>2026-04-05T14:44:35.279Z</time></trkpt><trkpt lat="45.7276783" lon="8.5438933"><ele>276.0</ele><time>2026-04-05T14:44:37.282Z</time></trkpt><trkpt lat="45.7276483" lon="8.543775"><ele>275.1666666666667</ele><time>2026-04-05T14:44:39.28Z</time></trkpt><trkpt lat="45.7276133" lon="8.5436617"><ele>274.3333333333333</ele><time>2026-04-05T14:44:41.274Z</time></trkpt><trkpt lat="45.7275867" lon="8.5435483"><ele>273.5</ele><time>2026-04-05T14:44:43.279Z</time></trkpt><trkpt lat="45.727555" lon="8.5434333"><ele>272.66666666666663</ele><time>2026-04-05T14:44:45.276Z</time></trkpt><trkpt lat="45.72754" lon="8.54332"><ele>271.8333333333333</ele><time>2026-04-05T14:44:47.285Z</time></trkpt><trkpt lat="45.7275233" lon="8.5431983"><ele>271.0</ele><time>2026-04-05T14:44:49.278Z</time></trkpt><trkpt lat="45.72753" lon="8.5430833"><ele>271.0</ele><time>2026-04-05T14:44:51.286Z</time></trkpt><trkpt lat="45.7275767" lon="8.5429983"><ele>271.0</ele><time>2026-04-05T14:44:53.277Z</time></trkpt><trkpt lat="45.7276483" lon="8.5429683"><ele>271.0</ele><time>2026-04-05T14:44:55.285Z</time></trkpt><trkpt lat="45.727725" lon="8.54295"><ele>271.0</ele><time>2026-04-05T14:44:57.28Z</time></trkpt><trkpt lat="45.7278" lon="8.54295"><ele>271.0</ele><time>2026-04-05T14:44:59.28Z</time></trkpt><trkpt lat="45.7278667" lon="8.542955"><ele>271.0</ele><time>2026-04-05T14:45:01.28Z</time></trkpt><trkpt lat="45.7279333" lon="8.5429233"><ele>271.0</ele><time>2026-04-05T14:45:03.281Z</time></trkpt><trkpt lat="45.7279717" lon="8.5428383"><ele>271.16666666666663</ele><time>2026-04-05T14:45:05.275Z</time></trkpt><trkpt lat="45.72798" lon="8.5427333"><ele>271.3333333333333</ele><time>2026-04-05T14:45:07.276Z</time></trkpt><trkpt lat="45.7279683" lon="8.5426167"><ele>271.5</ele><time>2026-04-05T14:45:09.281Z</time></trkpt><trkpt lat="45.72794" lon="8.5424983"><ele>271.6666666666667</ele><time>2026-04-05T14:45:11.277Z</time></trkpt><trkpt lat="45.7279117" lon="8.5423883"><ele>271.83333333333337</ele><time>2026-04-05T14:45:13.278Z</time></trkpt><trkpt lat="45.7278817" lon="8.542275"><ele>272.0</ele><time>2026-04-05T14:45:15.28Z</time></trkpt><trkpt lat="45.72786" lon="8.5421633"><ele>272.0</ele><time>2026-04-05T14:45:17.279Z</time></trkpt><trkpt lat="45.7278417" lon="8.5420533"><ele>272.0</ele><time>2026-04-05T14:45:19.28Z</time></trkpt><trkpt lat="45.72782" lon="8.5419467"><ele>272.0</ele><time>2026-04-05T14:45:21.28Z</time></trkpt><trkpt lat="45.7277983" lon="8.541845"><ele>272.0</ele><time>2026-04-05T14:45:23.278Z</time></trkpt><trkpt lat="45.72778" lon="8.5417483"><ele>272.0</ele><time>2026-04-05T14:45:25.276Z</time></trkpt><trkpt lat="45.7277583" lon="8.541645"><ele>272.0</ele><time>2026-04-05T14:45:27.282Z</time></trkpt><trkpt lat="45.7277317" lon="8.5415467"><ele>271.99999999999994</ele><time>2026-04-05T14:45:29.28Z</time></trkpt><trkpt lat="45.72771" lon="8.5414517"><ele>272.0</ele><time>2026-04-05T14:45:31.278Z</time></trkpt><trkpt lat="45.7276933" lon="8.5413517"><ele>272.0</ele><time>2026-04-05T14:45:33.274Z</time></trkpt><trkpt lat="45.7276683" lon="8.5412567"><ele>272.0</ele><time>2026-04-05T14:45:35.278Z</time></trkpt><trkpt lat="45.7276433" lon="8.5411517"><ele>272.0</ele><time>2026-04-05T14:45:37.279Z</time></trkpt><trkpt lat="45.727615" lon="8.5410533"><ele>271.99999999999994</ele><time>2026-04-05T14:45:39.28Z</time></trkpt><trkpt lat="45.7276" lon="8.540955"><ele>272.0</ele><time>2026-04-05T14:45:41.279Z</time></trkpt><trkpt lat="45.7275767" lon="8.5408517"><ele>271.99999999999994</ele><time>2026-04-05T14:45:43.278Z</time></trkpt><trkpt lat="45.72755" lon="8.5407567"><ele>272.0</ele><time>2026-04-05T14:45:45.288Z</time></trkpt><trkpt lat="45.727535" lon="8.540655"><ele>272.0</ele><time>2026-04-05T14:45:47.273Z</time></trkpt><trkpt lat="45.727515" lon="8.5405533"><ele>272.0</ele><time>2026-04-05T14:45:49.279Z</time></trkpt><trkpt lat="45.7274933" lon="8.5404533"><ele>272.0</ele><time>2026-04-05T14:45:51.279Z</time></trkpt><trkpt lat="45.7274683" lon="8.540355"><ele>271.99999999999994</ele><time>2026-04-05T14:45:53.279Z</time></trkpt><trkpt lat="45.7274533" lon="8.5402583"><ele>272.0</ele><time>2026-04-05T14:45:55.279Z</time></trkpt><trkpt lat="45.7274367" lon="8.5401633"><ele>272.5</ele><time>2026-04-05T14:45:57.278Z</time></trkpt><trkpt lat="45.7274217" lon="8.54006"><ele>273.0</ele><time>2026-04-05T14:45:59.281Z</time></trkpt><trkpt lat="45.7273983" lon="8.539955"><ele>273.5</ele><time>2026-04-05T14:46:01.28Z</time></trkpt><trkpt lat="45.7273617" lon="8.5398333"><ele>274.0</ele><time>2026-04-05T14:46:04.278Z</time></trkpt><trkpt lat="45.7273317" lon="8.53972"><ele>274.5</ele><time>2026-04-05T14:46:07.28Z</time></trkpt><trkpt lat="45.727315" lon="8.5395917"><ele>275.0</ele><time>2026-04-05T14:46:10.281Z</time></trkpt><trkpt lat="45.72727" lon="8.5394883"><ele>275.7142857142857</ele><time>2026-04-05T14:46:13.282Z</time></trkpt><trkpt lat="45.727245" lon="8.53937"><ele>276.42857142857144</ele><time>2026-04-05T14:46:16.28Z</time></trkpt><trkpt lat="45.72723" lon="8.5392517"><ele>277.1428571428571</ele><time>2026-04-05T14:46:20.28Z</time></trkpt><trkpt lat="45.72721" lon="8.5391633"><ele>277.8571428571429</ele><time>2026-04-05T14:46:23.278Z</time></trkpt><trkpt lat="45.7271833" lon="8.539075"><ele>278.57142857142856</ele><time>2026-04-05T14:46:26.278Z</time></trkpt><trkpt lat="45.7271683" lon="8.5389867"><ele>279.2857142857143</ele><time>2026-04-05T14:46:29.277Z</time></trkpt><trkpt lat="45.7271483" lon="8.5388917"><ele>280.0</ele><time>2026-04-05T14:46:32.279Z</time></trkpt><trkpt lat="45.7271067" lon="8.5388067"><ele>281.0</ele><time>2026-04-05T14:46:36.279Z</time></trkpt><trkpt lat="45.72709" lon="8.53871"><ele>282.0</ele><time>2026-04-05T14:46:39.279Z</time></trkpt><trkpt lat="45.7270683" lon="8.5386133"><ele>283.0</ele><time>2026-04-05T14:46:42.276Z</time></trkpt><trkpt lat="45.7270417" lon="8.538505"><ele>284.0</ele><time>2026-04-05T14:46:46.277Z</time></trkpt><trkpt lat="45.72703" lon="8.5384117"><ele>285.0</ele><time>2026-04-05T14:46:49.278Z</time></trkpt><trkpt lat="45.7270083" lon="8.5383233"><ele>286.0</ele><time>2026-04-05T14:46:52.279Z</time></trkpt><trkpt lat="45.72699" lon="8.5382317"><ele>287.0</ele><time>2026-04-05T14:46:55.281Z</time></trkpt><trkpt lat="45.726975" lon="8.5381433"><ele>287.0</ele><time>2026-04-05T14:46:58.278Z</time></trkpt><trkpt lat="45.7269567" lon="8.538055"><ele>287.0</ele><time>2026-04-05T14:47:01.273Z</time></trkpt><trkpt lat="45.72693" lon="8.5379517"><ele>287.0</ele><time>2026-04-05T14:47:05.278Z</time></trkpt><trkpt lat="45.7269033" lon="8.5378517"><ele>287.0</ele><time>2026-04-05T14:47:09.28Z</time></trkpt><trkpt lat="45.726885" lon="8.537745"><ele>287.0</ele><time>2026-04-05T14:47:13.28Z</time></trkpt><trkpt lat="45.72686" lon="8.537645"><ele>287.0</ele><time>2026-04-05T14:47:17.28Z</time></trkpt><trkpt lat="45.726835" lon="8.5375433"><ele>287.0</ele><time>2026-04-05T14:47:21.274Z</time></trkpt><trkpt lat="45.7268083" lon="8.5374417"><ele>287.42857142857144</ele><time>2026-04-05T14:47:25.277Z</time></trkpt><trkpt lat="45.7267917" lon="8.5373217"><ele>287.8571428571429</ele><time>2026-04-05T14:47:29.275Z</time></trkpt><trkpt lat="45.7267767" lon="8.53723"><ele>288.2857142857143</ele><time>2026-04-05T14:47:32.282Z</time></trkpt><trkpt lat="45.7267483" lon="8.5371283"><ele>288.7142857142857</ele><time>2026-04-05T14:47:37.278Z</time></trkpt><trkpt lat="45.72672" lon="8.537025"><ele>289.14285714285717</ele><time>2026-04-05T14:47:41.275Z</time></trkpt><trkpt lat="45.7267069" lon="8.536936"><ele>289.57142857142856</ele><time>2026-04-05T14:47:48.72Z</time></trkpt><trkpt lat="45.7266839" lon="8.5368399"><ele>290.0</ele><time>2026-04-05T14:47:51.275Z</time></trkpt><trkpt lat="45.7266576" lon="8.5367567"><ele>291.0</ele><time>2026-04-05T14:47:54.274Z</time></trkpt><trkpt lat="45.7266411" lon="8.5366577"><ele>292.0</ele><time>2026-04-05T14:48:21.368Z</time></trkpt><trkpt lat="45.7266281" lon="8.5365545"><ele>293.0</ele><time>2026-04-05T14:48:25.371Z</time></trkpt><trkpt lat="45.7266159" lon="8.5364627"><ele>294.0</ele><time>2026-04-05T14:48:28.373Z</time></trkpt><trkpt lat="45.7265917" lon="8.5363583"><ele>295.0</ele><time>2026-04-05T14:48:31.28Z</time></trkpt><trkpt lat="45.726575" lon="8.5362667"><ele>296.0</ele><time>2026-04-05T14:48:34.278Z</time></trkpt><trkpt lat="45.7265567" lon="8.5361717"><ele>297.0</ele><time>2026-04-05T14:48:37.279Z</time></trkpt><trkpt lat="45.7265283" lon="8.536085"><ele>297.8333333333333</ele><time>2026-04-05T14:48:40.279Z</time></trkpt><trkpt lat="45.7264967" lon="8.5359733"><ele>298.6666666666667</ele><time>2026-04-05T14:48:44.281Z</time></trkpt><trkpt lat="45.7264783" lon="8.53586"><ele>299.5</ele><time>2026-04-05T14:48:48.281Z</time></trkpt><trkpt lat="45.7264567" lon="8.5357583"><ele>300.33333333333337</ele><time>2026-04-05T14:48:52.28Z</time></trkpt><trkpt lat="45.7264233" lon="8.5356533"><ele>301.1666666666667</ele><time>2026-04-05T14:48:56.283Z</time></trkpt><trkpt lat="45.7264033" lon="8.5355517"><ele>302.0</ele><time>2026-04-05T14:49:00.278Z</time></trkpt><trkpt lat="45.726385" lon="8.535465"><ele>302.7142857142857</ele><time>2026-04-05T14:49:11.277Z</time></trkpt><trkpt lat="45.7263583" lon="8.5353683"><ele>303.42857142857144</ele><time>2026-04-05T14:49:48.277Z</time></trkpt><trkpt lat="45.7263317" lon="8.5352617"><ele>304.1428571428571</ele><time>2026-04-05T14:49:52.276Z</time></trkpt><trkpt lat="45.7262917" lon="8.53517"><ele>304.8571428571429</ele><time>2026-04-05T14:49:55.278Z</time></trkpt><trkpt lat="45.72625" lon="8.5350867"><ele>305.57142857142856</ele><time>2026-04-05T14:49:58.274Z</time></trkpt><trkpt lat="45.7262133" lon="8.5350067"><ele>306.2857142857143</ele><time>2026-04-05T14:50:01.279Z</time></trkpt><trkpt lat="45.7261667" lon="8.5349317"><ele>307.0</ele><time>2026-04-05T14:50:05.278Z</time></trkpt><trkpt lat="45.7261033" lon="8.5348933"><ele>307.66666666666663</ele><time>2026-04-05T14:50:09.279Z</time></trkpt><trkpt lat="45.72603" lon="8.534895"><ele>308.3333333333333</ele><time>2026-04-05T14:50:12.279Z</time></trkpt><trkpt lat="45.7259417" lon="8.53491"><ele>309.0</ele><time>2026-04-05T14:50:15.278Z</time></trkpt><trkpt lat="45.7258767" lon="8.5349233"><ele>309.6666666666667</ele><time>2026-04-05T14:50:17.276Z</time></trkpt><trkpt lat="45.7258067" lon="8.5349333"><ele>310.33333333333337</ele><time>2026-04-05T14:50:19.279Z</time></trkpt><trkpt lat="45.725735" lon="8.53494"><ele>311.0</ele><time>2026-04-05T14:50:21.273Z</time></trkpt><trkpt lat="45.72565" lon="8.5349333"><ele>311.0</ele><time>2026-04-05T14:50:23.278Z</time></trkpt><trkpt lat="45.725565" lon="8.534915"><ele>311.0</ele><time>2026-04-05T14:50:25.278Z</time></trkpt><trkpt lat="45.725485" lon="8.5348783"><ele>311.0</ele><time>2026-04-05T14:50:27.279Z</time></trkpt><trkpt lat="45.7254033" lon="8.53482"><ele>311.0</ele><time>2026-04-05T14:50:29.278Z</time></trkpt><trkpt lat="45.7253233" lon="8.53475"><ele>311.0</ele><time>2026-04-05T14:50:31.281Z</time></trkpt><trkpt lat="45.725245" lon="8.534675"><ele>311.0</ele><time>2026-04-05T14:50:33.278Z</time></trkpt><trkpt lat="45.72517" lon="8.5346"><ele>310.6666666666667</ele><time>2026-04-05T14:50:35.277Z</time></trkpt><trkpt lat="45.7251" lon="8.5345267"><ele>310.33333333333337</ele><time>2026-04-05T14:50:37.279Z</time></trkpt><trkpt lat="45.7250283" lon="8.5344617"><ele>310.0</ele><time>2026-04-05T14:50:39.279Z</time></trkpt><trkpt lat="45.7249567" lon="8.534395"><ele>309.6666666666667</ele><time>2026-04-05T14:50:41.281Z</time></trkpt><trkpt lat="45.724885" lon="8.5343267"><ele>309.3333333333333</ele><time>2026-04-05T14:50:43.272Z</time></trkpt><trkpt lat="45.7248133" lon="8.53426"><ele>309.0</ele><time>2026-04-05T14:50:45.28Z</time></trkpt><trkpt lat="45.724745" lon="8.534195"><ele>309.0</ele><time>2026-04-05T14:50:47.278Z</time></trkpt><trkpt lat="45.724675" lon="8.5341283"><ele>309.0</ele><time>2026-04-05T14:50:49.279Z</time></trkpt><trkpt lat="45.7246067" lon="8.5340633"><ele>309.0</ele><time>2026-04-05T14:50:51.279Z</time></trkpt><trkpt lat="45.7245383" lon="8.5339967"><ele>309.0</ele><time>2026-04-05T14:50:53.279Z</time></trkpt><trkpt lat="45.7244733" lon="8.5339367"><ele>309.0</ele><time>2026-04-05T14:50:55.278Z</time></trkpt><trkpt lat="45.72441" lon="8.53387"><ele>309.0</ele><time>2026-04-05T14:50:57.28Z</time></trkpt><trkpt lat="45.7243467" lon="8.5338067"><ele>308.6666666666667</ele><time>2026-04-05T14:50:59.278Z</time></trkpt><trkpt lat="45.7242833" lon="8.5337483"><ele>308.3333333333333</ele><time>2026-04-05T14:51:01.278Z</time></trkpt><trkpt lat="45.7242217" lon="8.5336933"><ele>308.0</ele><time>2026-04-05T14:51:03.281Z</time></trkpt><trkpt lat="45.724155" lon="8.5336367"><ele>307.66666666666663</ele><time>2026-04-05T14:51:05.277Z</time></trkpt><trkpt lat="45.7240883" lon="8.5335717"><ele>307.3333333333333</ele><time>2026-04-05T14:51:07.28Z</time></trkpt><trkpt lat="45.7240217" lon="8.5334917"><ele>307.0</ele><time>2026-04-05T14:51:09.284Z</time></trkpt><trkpt lat="45.72396" lon="8.5333917"><ele>307.8</ele><time>2026-04-05T14:51:11.28Z</time></trkpt><trkpt lat="45.7239067" lon="8.5332867"><ele>308.6</ele><time>2026-04-05T14:51:13.272Z</time></trkpt><trkpt lat="45.7238567" lon="8.5331833"><ele>309.40000000000003</ele><time>2026-04-05T14:51:15.278Z</time></trkpt><trkpt lat="45.723805" lon="8.53308"><ele>310.2</ele><time>2026-04-05T14:51:17.28Z</time></trkpt><trkpt lat="45.7237517" lon="8.53297"><ele>311.0</ele><time>2026-04-05T14:51:19.28Z</time></trkpt><trkpt lat="45.7236933" lon="8.5328583"><ele>311.0</ele><time>2026-04-05T14:51:21.281Z</time></trkpt><trkpt lat="45.7236317" lon="8.5327383"><ele>311.0</ele><time>2026-04-05T14:51:23.278Z</time></trkpt><trkpt lat="45.7235667" lon="8.532615"><ele>311.0</ele><time>2026-04-05T14:51:25.282Z</time></trkpt><trkpt lat="45.7235033" lon="8.5324883"><ele>311.0</ele><time>2026-04-05T14:51:27.279Z</time></trkpt><trkpt lat="45.7234383" lon="8.5323617"><ele>311.0</ele><time>2026-04-05T14:51:29.276Z</time></trkpt><trkpt lat="45.72337" lon="8.5322367"><ele>310.40000000000003</ele><time>2026-04-05T14:51:31.28Z</time></trkpt><trkpt lat="45.7233017" lon="8.53211"><ele>309.8</ele><time>2026-04-05T14:51:33.278Z</time></trkpt><trkpt lat="45.7232367" lon="8.5319833"><ele>309.20000000000005</ele><time>2026-04-05T14:51:35.278Z</time></trkpt><trkpt lat="45.7231733" lon="8.531855"><ele>308.6</ele><time>2026-04-05T14:51:37.281Z</time></trkpt><trkpt lat="45.72311" lon="8.5317233"><ele>308.0</ele><time>2026-04-05T14:51:39.286Z</time></trkpt><trkpt lat="45.723045" lon="8.5315917"><ele>307.8</ele><time>2026-04-05T14:51:41.277Z</time></trkpt><trkpt lat="45.7229833" lon="8.5314617"><ele>307.6</ele><time>2026-04-05T14:51:43.28Z</time></trkpt><trkpt lat="45.7229183" lon="8.5313367"><ele>307.4</ele><time>2026-04-05T14:51:45.28Z</time></trkpt><trkpt lat="45.72285" lon="8.5312117"><ele>307.2</ele><time>2026-04-05T14:51:47.279Z</time></trkpt><trkpt lat="45.7227767" lon="8.5310933"><ele>307.0</ele><time>2026-04-05T14:51:49.28Z</time></trkpt><trkpt lat="45.7226917" lon="8.5309917"><ele>307.4</ele><time>2026-04-05T14:51:51.28Z</time></trkpt><trkpt lat="45.7225983" lon="8.53091"><ele>307.79999999999995</ele><time>2026-04-05T14:51:53.278Z</time></trkpt><trkpt lat="45.7224983" lon="8.5308483"><ele>308.2</ele><time>2026-04-05T14:51:55.279Z</time></trkpt><trkpt lat="45.7224083" lon="8.5307833"><ele>308.59999999999997</ele><time>2026-04-05T14:51:57.282Z</time></trkpt><trkpt lat="45.7223183" lon="8.5307083"><ele>309.0</ele><time>2026-04-05T14:51:59.277Z</time></trkpt><trkpt lat="45.722225" lon="8.5306367"><ele>309.0</ele><time>2026-04-05T14:52:01.279Z</time></trkpt><trkpt lat="45.7221333" lon="8.5305817"><ele>309.0</ele><time>2026-04-05T14:52:03.281Z</time></trkpt><trkpt lat="45.7220417" lon="8.5305233"><ele>309.0</ele><time>2026-04-05T14:52:05.28Z</time></trkpt><trkpt lat="45.72195" lon="8.53046"><ele>309.0</ele><time>2026-04-05T14:52:07.283Z</time></trkpt><trkpt lat="45.7218617" lon="8.5303917"><ele>309.0</ele><time>2026-04-05T14:52:09.28Z</time></trkpt><trkpt lat="45.7217783" lon="8.5303217"><ele>309.8</ele><time>2026-04-05T14:52:11.278Z</time></trkpt><trkpt lat="45.7216917" lon="8.5302433"><ele>310.59999999999997</ele><time>2026-04-05T14:52:13.276Z</time></trkpt><trkpt lat="45.7216" lon="8.53016"><ele>311.4</ele><time>2026-04-05T14:52:15.28Z</time></trkpt><trkpt lat="45.7215117" lon="8.53008"><ele>312.2</ele><time>2026-04-05T14:52:17.277Z</time></trkpt><trkpt lat="45.7214267" lon="8.53"><ele>313.0</ele><time>2026-04-05T14:52:19.281Z</time></trkpt><trkpt lat="45.7213383" lon="8.5299133"><ele>313.0</ele><time>2026-04-05T14:52:21.281Z</time></trkpt><trkpt lat="45.721255" lon="8.5298333"><ele>313.0</ele><time>2026-04-05T14:52:23.278Z</time></trkpt><trkpt lat="45.7211683" lon="8.52976"><ele>313.0</ele><time>2026-04-05T14:52:25.28Z</time></trkpt><trkpt lat="45.7210917" lon="8.5296917"><ele>313.0</ele><time>2026-04-05T14:52:27.281Z</time></trkpt><trkpt lat="45.7210183" lon="8.5296233"><ele>313.0</ele><time>2026-04-05T14:52:29.281Z</time></trkpt><trkpt lat="45.720945" lon="8.5295583"><ele>314.5</ele><time>2026-04-05T14:52:31.281Z</time></trkpt><trkpt lat="45.720875" lon="8.529485"><ele>316.0</ele><time>2026-04-05T14:52:33.281Z</time></trkpt><trkpt lat="45.7208033" lon="8.5294167"><ele>317.5</ele><time>2026-04-05T14:52:35.276Z</time></trkpt><trkpt lat="45.7207333" lon="8.5293533"><ele>319.0</ele><time>2026-04-05T14:52:37.277Z</time></trkpt><trkpt lat="45.7206583" lon="8.5292933"><ele>320.5</ele><time>2026-04-05T14:52:39.277Z</time></trkpt><trkpt lat="45.7205917" lon="8.5292233"><ele>322.0</ele><time>2026-04-05T14:52:41.283Z</time></trkpt><trkpt lat="45.7205333" lon="8.5291533"><ele>322.0</ele><time>2026-04-05T14:52:43.282Z</time></trkpt><trkpt lat="45.7204733" lon="8.5290917"><ele>322.0</ele><time>2026-04-05T14:52:45.276Z</time></trkpt><trkpt lat="45.7204133" lon="8.5290383"><ele>322.0</ele><time>2026-04-05T14:52:47.28Z</time></trkpt><trkpt lat="45.72033" lon="8.5289767"><ele>322.0</ele><time>2026-04-05T14:52:50.278Z</time></trkpt><trkpt lat="45.72028" lon="8.52892"><ele>322.0</ele><time>2026-04-05T14:52:52.281Z</time></trkpt><trkpt lat="45.72022" lon="8.5288533"><ele>322.0</ele><time>2026-04-05T14:52:54.276Z</time></trkpt><trkpt lat="45.72016" lon="8.5287983"><ele>322.0</ele><time>2026-04-05T14:52:56.282Z</time></trkpt><trkpt lat="45.7200883" lon="8.5287283"><ele>322.66666666666663</ele><time>2026-04-05T14:52:59.275Z</time></trkpt><trkpt lat="45.7200233" lon="8.5286667"><ele>323.3333333333333</ele><time>2026-04-05T14:53:02.279Z</time></trkpt><trkpt lat="45.719955" lon="8.5286067"><ele>324.0</ele><time>2026-04-05T14:53:05.272Z</time></trkpt><trkpt lat="45.7198867" lon="8.5285483"><ele>324.6666666666667</ele><time>2026-04-05T14:53:08.28Z</time></trkpt><trkpt lat="45.71982" lon="8.5284933"><ele>325.33333333333337</ele><time>2026-04-05T14:53:11.278Z</time></trkpt><trkpt lat="45.7197467" lon="8.5284317"><ele>326.0</ele><time>2026-04-05T14:53:14.283Z</time></trkpt><trkpt lat="45.719665" lon="8.528355"><ele>326.0</ele><time>2026-04-05T14:53:17.278Z</time></trkpt><trkpt lat="45.7196067" lon="8.5282967"><ele>326.0</ele><time>2026-04-05T14:53:19.278Z</time></trkpt><trkpt lat="45.7195483" lon="8.5282383"><ele>326.0</ele><time>2026-04-05T14:53:21.278Z</time></trkpt><trkpt lat="45.7194917" lon="8.5281833"><ele>326.0</ele><time>2026-04-05T14:53:23.284Z</time></trkpt><trkpt lat="45.7194383" lon="8.5281333"><ele>326.0</ele><time>2026-04-05T14:53:25.278Z</time></trkpt><trkpt lat="45.7193617" lon="8.52806"><ele>326.0</ele><time>2026-04-05T14:53:28.279Z</time></trkpt><trkpt lat="45.719285" lon="8.527985"><ele>326.0</ele><time>2026-04-05T14:53:31.279Z</time></trkpt><trkpt lat="45.7192317" lon="8.5279317"><ele>326.0</ele><time>2026-04-05T14:53:33.276Z</time></trkpt><trkpt lat="45.71918" lon="8.52788"><ele>326.0</ele><time>2026-04-05T14:53:35.278Z</time></trkpt><trkpt lat="45.7191017" lon="8.5278117"><ele>326.0</ele><time>2026-04-05T14:53:38.272Z</time></trkpt><trkpt lat="45.7190283" lon="8.5277433"><ele>326.0</ele><time>2026-04-05T14:53:41.278Z</time></trkpt><trkpt lat="45.7189517" lon="8.5276817"><ele>326.0</ele><time>2026-04-05T14:53:44.272Z</time></trkpt><trkpt lat="45.7188783" lon="8.5276117"><ele>325.83333333333337</ele><time>2026-04-05T14:53:47.277Z</time></trkpt><trkpt lat="45.7188267" lon="8.52756"><ele>325.6666666666667</ele><time>2026-04-05T14:53:49.281Z</time></trkpt><trkpt lat="45.71875" lon="8.5274967"><ele>325.5</ele><time>2026-04-05T14:53:52.281Z</time></trkpt><trkpt lat="45.7186833" lon="8.52743"><ele>325.3333333333333</ele><time>2026-04-05T14:53:55.273Z</time></trkpt><trkpt lat="45.7186283" lon="8.527365"><ele>325.16666666666663</ele><time>2026-04-05T14:53:58.276Z</time></trkpt><trkpt lat="45.7185617" lon="8.5272917"><ele>325.0</ele><time>2026-04-05T14:54:01.281Z</time></trkpt><trkpt lat="45.71849" lon="8.5272283"><ele>325.5</ele><time>2026-04-05T14:54:04.278Z</time></trkpt><trkpt lat="45.7184133" lon="8.5271583"><ele>326.0</ele><time>2026-04-05T14:54:07.276Z</time></trkpt><trkpt lat="45.7183483" lon="8.5271017"><ele>326.5</ele><time>2026-04-05T14:54:10.279Z</time></trkpt><trkpt lat="45.718285" lon="8.5270483"><ele>327.0</ele><time>2026-04-05T14:54:13.279Z</time></trkpt><trkpt lat="45.7182217" lon="8.5269833"><ele>327.5</ele><time>2026-04-05T14:54:16.279Z</time></trkpt><trkpt lat="45.7181567" lon="8.5269317"><ele>328.0</ele><time>2026-04-05T14:54:19.281Z</time></trkpt><trkpt lat="45.7180867" lon="8.5268783"><ele>329.5</ele><time>2026-04-05T14:54:22.281Z</time></trkpt><trkpt lat="45.7180283" lon="8.5268367"><ele>331.0</ele><time>2026-04-05T14:54:24.281Z</time></trkpt><trkpt lat="45.7179617" lon="8.526805"><ele>332.5</ele><time>2026-04-05T14:54:26.28Z</time></trkpt><trkpt lat="45.7178967" lon="8.5267683"><ele>334.0</ele><time>2026-04-05T14:54:28.278Z</time></trkpt><trkpt lat="45.71781" lon="8.52672"><ele>335.5</ele><time>2026-04-05T14:54:31.277Z</time></trkpt><trkpt lat="45.7177233" lon="8.526675"><ele>337.0</ele><time>2026-04-05T14:54:34.28Z</time></trkpt><trkpt lat="45.7176467" lon="8.52663"><ele>337.0</ele><time>2026-04-05T14:54:37.277Z</time></trkpt><trkpt lat="45.7175617" lon="8.5265933"><ele>337.0</ele><time>2026-04-05T14:54:40.279Z</time></trkpt><trkpt lat="45.7174767" lon="8.526565"><ele>337.0</ele><time>2026-04-05T14:54:43.278Z</time></trkpt><trkpt lat="45.717385" lon="8.5265283"><ele>337.0</ele><time>2026-04-05T14:54:46.279Z</time></trkpt><trkpt lat="45.7172983" lon="8.5264767"><ele>337.0</ele><time>2026-04-05T14:54:49.28Z</time></trkpt><trkpt lat="45.7172383" lon="8.5264467"><ele>337.0</ele><time>2026-04-05T14:54:51.276Z</time></trkpt><trkpt lat="45.7171533" lon="8.5264083"><ele>337.0</ele><time>2026-04-05T14:54:54.281Z</time></trkpt><trkpt lat="45.71707" lon="8.5263667"><ele>337.0</ele><time>2026-04-05T14:54:57.278Z</time></trkpt><trkpt lat="45.7169883" lon="8.5263217"><ele>337.0</ele><time>2026-04-05T14:55:00.281Z</time></trkpt><trkpt lat="45.7169017" lon="8.5262867"><ele>337.0</ele><time>2026-04-05T14:55:03.277Z</time></trkpt><trkpt lat="45.7168233" lon="8.526235"><ele>337.0</ele><time>2026-04-05T14:55:06.281Z</time></trkpt><trkpt lat="45.71674" lon="8.5261867"><ele>337.0</ele><time>2026-04-05T14:55:09.278Z</time></trkpt><trkpt lat="45.7166783" lon="8.52616"><ele>337.5714285714286</ele><time>2026-04-05T14:55:11.279Z</time></trkpt><trkpt lat="45.7166133" lon="8.5261333"><ele>338.14285714285717</ele><time>2026-04-05T14:55:13.281Z</time></trkpt><trkpt lat="45.71655" lon="8.5261017"><ele>338.7142857142857</ele><time>2026-04-05T14:55:15.274Z</time></trkpt><trkpt lat="45.7164883" lon="8.52607"><ele>339.28571428571433</ele><time>2026-04-05T14:55:17.278Z</time></trkpt><trkpt lat="45.7164233" lon="8.5260467"><ele>339.8571428571429</ele><time>2026-04-05T14:55:19.281Z</time></trkpt><trkpt lat="45.7163617" lon="8.526015"><ele>340.42857142857144</ele><time>2026-04-05T14:55:21.278Z</time></trkpt><trkpt lat="45.716275" lon="8.525965"><ele>341.0</ele><time>2026-04-05T14:55:24.278Z</time></trkpt><trkpt lat="45.716205" lon="8.5259333"><ele>341.0</ele><time>2026-04-05T14:55:26.275Z</time></trkpt><trkpt lat="45.716135" lon="8.5258967"><ele>341.0</ele><time>2026-04-05T14:55:28.279Z</time></trkpt><trkpt lat="45.71607" lon="8.52586"><ele>341.0</ele><time>2026-04-05T14:55:30.281Z</time></trkpt><trkpt lat="45.7160117" lon="8.5258117"><ele>341.0</ele><time>2026-04-05T14:55:32.279Z</time></trkpt><trkpt lat="45.715955" lon="8.5257517"><ele>341.0</ele><time>2026-04-05T14:55:34.278Z</time></trkpt><trkpt lat="45.7159083" lon="8.525675"><ele>341.0</ele><time>2026-04-05T14:55:36.279Z</time></trkpt><trkpt lat="45.7158667" lon="8.5256"><ele>341.0</ele><time>2026-04-05T14:55:38.279Z</time></trkpt><trkpt lat="45.7158283" lon="8.5255267"><ele>340.85714285714283</ele><time>2026-04-05T14:55:40.279Z</time></trkpt><trkpt lat="45.715765" lon="8.5254267"><ele>340.7142857142857</ele><time>2026-04-05T14:55:43.278Z</time></trkpt><trkpt lat="45.7157283" lon="8.5253517"><ele>340.57142857142856</ele><time>2026-04-05T14:55:45.28Z</time></trkpt><trkpt lat="45.715685" lon="8.525275"><ele>340.42857142857144</ele><time>2026-04-05T14:55:47.278Z</time></trkpt><trkpt lat="45.7156467" lon="8.5251917"><ele>340.2857142857143</ele><time>2026-04-05T14:55:49.279Z</time></trkpt><trkpt lat="45.7156067" lon="8.52511"><ele>340.14285714285717</ele><time>2026-04-05T14:55:51.28Z</time></trkpt><trkpt lat="45.7155683" lon="8.5250317"><ele>340.0</ele><time>2026-04-05T14:55:53.279Z</time></trkpt><trkpt lat="45.715525" lon="8.5249567"><ele>340.66666666666663</ele><time>2026-04-05T14:55:55.279Z</time></trkpt><trkpt lat="45.7154783" lon="8.52488"><ele>341.3333333333333</ele><time>2026-04-05T14:55:57.279Z</time></trkpt><trkpt lat="45.715435" lon="8.524805"><ele>342.0</ele><time>2026-04-05T14:55:59.278Z</time></trkpt><trkpt lat="45.7153817" lon="8.5247"><ele>342.6666666666667</ele><time>2026-04-05T14:56:02.278Z</time></trkpt><trkpt lat="45.71534" lon="8.5246283"><ele>343.33333333333337</ele><time>2026-04-05T14:56:04.282Z</time></trkpt><trkpt lat="45.71529" lon="8.5245233"><ele>344.0</ele><time>2026-04-05T14:56:07.279Z</time></trkpt><trkpt lat="45.7152367" lon="8.5244167"><ele>344.83333333333337</ele><time>2026-04-05T14:56:10.278Z</time></trkpt><trkpt lat="45.71519" lon="8.524305"><ele>345.6666666666667</ele><time>2026-04-05T14:56:13.277Z</time></trkpt><trkpt lat="45.7151633" lon="8.5242217"><ele>346.5</ele><time>2026-04-05T14:56:15.276Z</time></trkpt><trkpt lat="45.7151333" lon="8.5240967"><ele>347.3333333333333</ele><time>2026-04-05T14:56:18.28Z</time></trkpt><trkpt lat="45.7151133" lon="8.5239733"><ele>348.16666666666663</ele><time>2026-04-05T14:56:21.282Z</time></trkpt><trkpt lat="45.7150933" lon="8.523845"><ele>349.0</ele><time>2026-04-05T14:56:24.279Z</time></trkpt><trkpt lat="45.7150733" lon="8.5237133"><ele>349.71428571428567</ele><time>2026-04-05T14:56:27.279Z</time></trkpt><trkpt lat="45.715055" lon="8.523625"><ele>350.42857142857144</ele><time>2026-04-05T14:56:29.28Z</time></trkpt><trkpt lat="45.71504" lon="8.5235367"><ele>351.1428571428571</ele><time>2026-04-05T14:56:31.278Z</time></trkpt><trkpt lat="45.7150183" lon="8.5234483"><ele>351.85714285714283</ele><time>2026-04-05T14:56:33.28Z</time></trkpt><trkpt lat="45.7149917" lon="8.5233617"><ele>352.57142857142856</ele><time>2026-04-05T14:56:35.28Z</time></trkpt><trkpt lat="45.7149383" lon="8.5232817"><ele>353.2857142857143</ele><time>2026-04-05T14:56:38.281Z</time></trkpt><trkpt lat="45.7148567" lon="8.5232717"><ele>354.0</ele><time>2026-04-05T14:56:41.278Z</time></trkpt><trkpt lat="45.714795" lon="8.523315"><ele>354.0</ele><time>2026-04-05T14:56:44.286Z</time></trkpt><trkpt lat="45.71473" lon="8.523365"><ele>354.0</ele><time>2026-04-05T14:56:47.279Z</time></trkpt><trkpt lat="45.7146483" lon="8.5234117"><ele>354.0</ele><time>2026-04-05T14:56:50.282Z</time></trkpt><trkpt lat="45.7145633" lon="8.5234683"><ele>354.0</ele><time>2026-04-05T14:56:53.279Z</time></trkpt><trkpt lat="45.7145033" lon="8.5235017"><ele>354.0</ele><time>2026-04-05T14:56:55.279Z</time></trkpt><trkpt lat="45.71444" lon="8.523535"><ele>354.0</ele><time>2026-04-05T14:56:57.277Z</time></trkpt><trkpt lat="45.7143767" lon="8.52357"><ele>353.8333333333333</ele><time>2026-04-05T14:56:59.277Z</time></trkpt><trkpt lat="45.7143183" lon="8.5236083"><ele>353.6666666666667</ele><time>2026-04-05T14:57:01.278Z</time></trkpt><trkpt lat="45.7142333" lon="8.523665"><ele>353.5</ele><time>2026-04-05T14:57:04.278Z</time></trkpt><trkpt lat="45.7141467" lon="8.5236833"><ele>353.33333333333337</ele><time>2026-04-05T14:57:07.278Z</time></trkpt><trkpt lat="45.7140533" lon="8.5236717"><ele>353.1666666666667</ele><time>2026-04-05T14:57:10.28Z</time></trkpt><trkpt lat="45.7139683" lon="8.5236717"><ele>353.0</ele><time>2026-04-05T14:57:13.28Z</time></trkpt><trkpt lat="45.7139" lon="8.5236917"><ele>353.0</ele><time>2026-04-05T14:57:15.28Z</time></trkpt><trkpt lat="45.7138217" lon="8.5237233"><ele>353.0</ele><time>2026-04-05T14:57:17.28Z</time></trkpt><trkpt lat="45.7137433" lon="8.5237633"><ele>353.0</ele><time>2026-04-05T14:57:19.28Z</time></trkpt><trkpt lat="45.7136567" lon="8.5238283"><ele>353.0</ele><time>2026-04-05T14:57:21.281Z</time></trkpt><trkpt lat="45.7135783" lon="8.5238917"><ele>353.0</ele><time>2026-04-05T14:57:23.279Z</time></trkpt><trkpt lat="45.7135" lon="8.52395"><ele>353.0</ele><time>2026-04-05T14:57:25.281Z</time></trkpt><trkpt lat="45.7134183" lon="8.5240283"><ele>352.7142857142857</ele><time>2026-04-05T14:57:27.281Z</time></trkpt><trkpt lat="45.71335" lon="8.5241"><ele>352.42857142857144</ele><time>2026-04-05T14:57:29.279Z</time></trkpt><trkpt lat="45.7132883" lon="8.5241517"><ele>352.14285714285717</ele><time>2026-04-05T14:57:31.275Z</time></trkpt><trkpt lat="45.7132483" lon="8.5240617"><ele>351.8571428571429</ele><time>2026-04-05T14:58:32.277Z</time></trkpt><trkpt lat="45.7132283" lon="8.52397"><ele>351.57142857142856</ele><time>2026-04-05T14:58:34.279Z</time></trkpt><trkpt lat="45.7131683" lon="8.5239117"><ele>351.28571428571433</ele><time>2026-04-05T14:58:37.28Z</time></trkpt><trkpt lat="45.7131317" lon="8.52399"><ele>351.0</ele><time>2026-04-05T14:58:43.278Z</time></trkpt><trkpt lat="45.7131717" lon="8.5240667"><ele>351.0</ele><time>2026-04-05T15:02:45.277Z</time></trkpt><trkpt lat="45.7132383" lon="8.5240967"><ele>351.0</ele><time>2026-04-05T15:02:52.278Z</time></trkpt><trkpt lat="45.713205" lon="8.5241744"><ele>351.0</ele><time>2026-04-05T15:03:09.486Z</time></trkpt><trkpt lat="45.7131412" lon="8.5241469"><ele>351.0</ele><time>2026-04-05T15:03:15.962Z</time></trkpt><trkpt lat="45.7130997" lon="8.5240787"><ele>351.0</ele><time>2026-04-05T15:03:27.295Z</time></trkpt></trkseg></trk></gpx>